ACA34 YSSY-CYVR
Flight info
| Callsign | ACA34 |
|---|---|
| Flight time | N/A |
| Altitude | 31000 |
| Route | TESAT H252 OLSEM Y193 BANDA H252 GOMOL Q47 SCOTT DCT LAPIP DCT TEBUR/N0492F330 DCT BIROP DCT 15S174E DCT TESAR DCT 05S177W/N0487F350 00N172W DCT CEBUR A579 CHEEM/N0478F370 DCT CARRP DCT APACK R463 AUNTI A332 HELOP/N0471F390 DCT 42N135W 46N130W DCT SHARI DCT PEKAA SHARK3 |
| Aircraft | B77L/H-SDE1E2E3FGHIJ2J3J4J5M1RWXY/LB1D1 |
Departure
| Time | 2026-05-07 10:52 |
|---|---|
| Airport | Sydney Kingsford Smith International Airport (YSSY) |
Arrival
| Time | N/A |
|---|---|
| Airport | Vancouver International Airport (CYVR) |
| Time | Latitude | Longitude | Altitude | Speed | Heading |
|---|---|---|---|---|---|
| 2026-05-07 10:19 | -33.93831 | 151.16837 | 30 ft | 0 kts | 70° |
| 2026-05-07 10:37 | -33.93835 | 151.16826 | 31 ft | 2 kts | 75° |
| 2026-05-07 10:38 | -33.93839 | 151.16807 | 31 ft | 2 kts | 81° |
| 2026-05-07 10:38 | -33.93841 | 151.16788 | 31 ft | 2 kts | 85° |
| 2026-05-07 10:38 | -33.93841 | 151.16768 | 31 ft | 2 kts | 101° |
| 2026-05-07 10:38 | -33.93836 | 151.16749 | 31 ft | 2 kts | 129° |
| 2026-05-07 10:39 | -33.93824 | 151.16737 | 31 ft | 2 kts | 155° |
| 2026-05-07 10:39 | -33.93820 | 151.16734 | 31 ft | 0 kts | 168° |
| 2026-05-07 10:42 | -33.93832 | 151.16738 | 31 ft | 5 kts | 165° |
| 2026-05-07 10:42 | -33.93871 | 151.16751 | 28 ft | 7 kts | 164° |
| 2026-05-07 10:43 | -33.93922 | 151.16768 | 28 ft | 8 kts | 165° |
| 2026-05-07 10:43 | -33.93983 | 151.16788 | 27 ft | 10 kts | 165° |
| 2026-05-07 10:43 | -33.94043 | 151.16828 | 28 ft | 10 kts | 122° |
| 2026-05-07 10:43 | -33.94040 | 151.16922 | 30 ft | 12 kts | 80° |
| 2026-05-07 10:44 | -33.94016 | 151.17025 | 28 ft | 14 kts | 71° |
| 2026-05-07 10:44 | -33.93992 | 151.17127 | 24 ft | 9 kts | 75° |
| 2026-05-07 10:44 | -33.93989 | 151.17203 | 27 ft | 10 kts | 121° |
| 2026-05-07 10:44 | -33.94044 | 151.17242 | 28 ft | 4 kts | 163° |
| 2026-05-07 10:45 | -33.94047 | 151.17243 | 28 ft | 0 kts | 164° |
| 2026-05-07 10:46 | -33.94053 | 151.17245 | 28 ft | 3 kts | 166° |
| 2026-05-07 10:46 | -33.94122 | 151.17264 | 26 ft | 18 kts | 167° |
| 2026-05-07 10:46 | -33.94292 | 151.17308 | 28 ft | 26 kts | 168° |
| 2026-05-07 10:47 | -33.94472 | 151.17353 | 30 ft | 26 kts | 168° |
| 2026-05-07 10:47 | -33.94651 | 151.17402 | 31 ft | 26 kts | 167° |
| 2026-05-07 10:47 | -33.94834 | 151.17451 | 28 ft | 28 kts | 169° |
| 2026-05-07 10:47 | -33.95033 | 151.17498 | 27 ft | 29 kts | 168° |
| 2026-05-07 10:48 | -33.95232 | 151.17551 | 26 ft | 29 kts | 167° |
| 2026-05-07 10:48 | -33.95431 | 151.17603 | 29 ft | 29 kts | 169° |
| 2026-05-07 10:48 | -33.95625 | 151.17651 | 27 ft | 24 kts | 167° |
| 2026-05-07 10:48 | -33.95785 | 151.17696 | 28 ft | 24 kts | 167° |
| 2026-05-07 10:49 | -33.95949 | 151.17738 | 27 ft | 24 kts | 168° |
| 2026-05-07 10:49 | -33.96114 | 151.17781 | 29 ft | 24 kts | 168° |
| 2026-05-07 10:49 | -33.96279 | 151.17823 | 27 ft | 24 kts | 168° |
| 2026-05-07 10:49 | -33.96412 | 151.17872 | 28 ft | 10 kts | 144° |
| 2026-05-07 10:50 | -33.96435 | 151.17949 | 28 ft | 11 kts | 92° |
| 2026-05-07 10:50 | -33.96415 | 151.18035 | 29 ft | 11 kts | 43° |
| 2026-05-07 10:50 | -33.96370 | 151.18047 | 28 ft | 0 kts | 349° |
| 2026-05-07 10:50 | -33.96369 | 151.18046 | 28 ft | 3 kts | 349° |
| 2026-05-07 10:51 | -33.96220 | 151.18009 | 30 ft | 52 kts | 347° |
| 2026-05-07 10:51 | -33.95659 | 151.17856 | 27 ft | 114 kts | 348° |
| 2026-05-07 10:51 | -33.94691 | 151.17615 | 28 ft | 167 kts | 348° |
| 2026-05-07 10:51 | -33.93479 | 151.17309 | 289 ft | 183 kts | 341° |
| 2026-05-07 10:52 | -33.92356 | 151.16667 | 668 ft | 177 kts | 310° |
| 2026-05-07 10:52 | -33.91557 | 151.15543 | 1109 ft | 179 kts | 303° |
| 2026-05-07 10:52 | -33.90711 | 151.14435 | 1619 ft | 179 kts | 301° |
| 2026-05-07 10:52 | -33.89842 | 151.13257 | 1796 ft | 197 kts | 302° |
| 2026-05-07 10:53 | -33.88887 | 151.11993 | 2002 ft | 213 kts | 302° |
| 2026-05-07 10:53 | -33.87853 | 151.10613 | 2212 ft | 230 kts | 302° |
| 2026-05-07 10:53 | -33.86694 | 151.09212 | 2457 ft | 251 kts | 317° |
| 2026-05-07 10:53 | -33.84912 | 151.08532 | 2837 ft | 285 kts | 355° |
| 2026-05-07 10:54 | -33.82987 | 151.09139 | 3426 ft | 297 kts | 29° |
| 2026-05-07 10:54 | -33.81352 | 151.10656 | 4021 ft | 299 kts | 46° |
| 2026-05-07 10:54 | -33.79967 | 151.12516 | 4745 ft | 296 kts | 53° |
| 2026-05-07 10:54 | -33.78685 | 151.14444 | 5460 ft | 294 kts | 55° |
| 2026-05-07 10:55 | -33.77428 | 151.16388 | 6093 ft | 297 kts | 54° |
| 2026-05-07 10:55 | -33.76157 | 151.18357 | 6716 ft | 298 kts | 54° |
| 2026-05-07 10:55 | -33.74879 | 151.20326 | 7343 ft | 299 kts | 54° |
| 2026-05-07 10:55 | -33.73584 | 151.22301 | 7887 ft | 303 kts | 53° |
| 2026-05-07 10:56 | -33.72271 | 151.24290 | 8464 ft | 305 kts | 53° |
| 2026-05-07 10:56 | -33.70942 | 151.26296 | 9028 ft | 308 kts | 53° |
| 2026-05-07 10:56 | -33.69598 | 151.28318 | 9619 ft | 310 kts | 52° |
| 2026-05-07 10:56 | -33.68264 | 151.30322 | 10162 ft | 312 kts | 52° |
| 2026-05-07 10:57 | -33.66879 | 151.32398 | 10412 ft | 327 kts | 52° |
| 2026-05-07 10:57 | -33.65416 | 151.34589 | 10551 ft | 345 kts | 52° |
| 2026-05-07 10:57 | -33.63878 | 151.36890 | 10782 ft | 361 kts | 52° |
| 2026-05-07 10:57 | -33.62271 | 151.39289 | 11022 ft | 378 kts | 53° |
| 2026-05-07 10:58 | -33.60590 | 151.41796 | 11362 ft | 391 kts | 53° |
| 2026-05-07 10:58 | -33.58869 | 151.44360 | 11917 ft | 398 kts | 52° |
| 2026-05-07 10:58 | -33.57117 | 151.46968 | 12628 ft | 402 kts | 53° |
| 2026-05-07 10:58 | -33.55354 | 151.49588 | 13321 ft | 407 kts | 53° |
| 2026-05-07 10:59 | -33.53558 | 151.52259 | 13924 ft | 415 kts | 53° |
| 2026-05-07 10:59 | -33.51742 | 151.54983 | 14415 ft | 422 kts | 55° |
| 2026-05-07 10:59 | -33.49960 | 151.57857 | 14641 ft | 438 kts | 57° |
| 2026-05-07 10:59 | -33.48116 | 151.60814 | 15028 ft | 449 kts | 56° |
| 2026-05-07 11:00 | -33.46157 | 151.63783 | 15582 ft | 455 kts | 54° |
| 2026-05-07 11:00 | -33.44136 | 151.66692 | 16355 ft | 456 kts | 53° |
| 2026-05-07 11:00 | -33.42094 | 151.69580 | 16843 ft | 464 kts | 53° |
| 2026-05-07 11:00 | -33.39977 | 151.72535 | 17230 ft | 472 kts | 51° |
| 2026-05-07 11:01 | -33.37495 | 151.75197 | 17594 ft | 487 kts | 37° |
| 2026-05-07 11:01 | -33.34530 | 151.77268 | 18065 ft | 495 kts | 24° |
| 2026-05-07 11:01 | -33.31271 | 151.78669 | 18430 ft | 500 kts | 13° |
| 2026-05-07 11:01 | -33.27868 | 151.79725 | 18767 ft | 508 kts | 12° |
| 2026-05-07 11:02 | -33.24440 | 151.80757 | 19335 ft | 509 kts | 11° |
| 2026-05-07 11:02 | -33.20999 | 151.81800 | 19987 ft | 509 kts | 11° |
| 2026-05-07 11:02 | -33.17568 | 151.82857 | 20569 ft | 511 kts | 11° |
| 2026-05-07 11:02 | -33.14162 | 151.83924 | 21052 ft | 515 kts | 11° |
| 2026-05-07 11:03 | -33.10668 | 151.85035 | 21522 ft | 517 kts | 11° |
| 2026-05-07 11:03 | -33.07213 | 151.86143 | 22175 ft | 517 kts | 11° |
| 2026-05-07 11:03 | -33.03732 | 151.87264 | 22748 ft | 519 kts | 11° |
| 2026-05-07 11:03 | -33.00234 | 151.88390 | 23222 ft | 523 kts | 10° |
| 2026-05-07 11:04 | -32.96710 | 151.89522 | 23695 ft | 526 kts | 10° |
| 2026-05-07 11:04 | -32.93169 | 151.90658 | 24120 ft | 529 kts | 10° |
| 2026-05-07 11:04 | -32.89604 | 151.91800 | 24508 ft | 531 kts | 10° |
| 2026-05-07 11:04 | -32.86036 | 151.92944 | 25084 ft | 529 kts | 9° |
| 2026-05-07 11:05 | -32.82481 | 151.94081 | 25567 ft | 531 kts | 9° |
| 2026-05-07 11:05 | -32.78891 | 151.95226 | 25874 ft | 536 kts | 9° |
| 2026-05-07 11:05 | -32.75274 | 151.96377 | 26222 ft | 540 kts | 9° |
| 2026-05-07 11:05 | -32.71674 | 151.97524 | 26637 ft | 542 kts | 9° |
| 2026-05-07 11:06 | -32.68031 | 151.98684 | 27073 ft | 543 kts | 9° |
| 2026-05-07 11:06 | -32.64369 | 151.99851 | 27498 ft | 545 kts | 9° |
| 2026-05-07 11:06 | -32.60693 | 152.01020 | 27892 ft | 547 kts | 9° |
| 2026-05-07 11:06 | -32.57009 | 152.02190 | 28251 ft | 550 kts | 9° |
| 2026-05-07 11:07 | -32.53293 | 152.03370 | 28610 ft | 553 kts | 9° |
| 2026-05-07 11:07 | -32.49562 | 152.04553 | 28973 ft | 555 kts | 9° |
| 2026-05-07 11:07 | -32.45834 | 152.05735 | 29313 ft | 556 kts | 9° |
| 2026-05-07 11:07 | -32.42124 | 152.06914 | 30146 ft | 546 kts | 9° |
| 2026-05-07 11:08 | -32.38493 | 152.08070 | 30886 ft | 537 kts | 8° |
| 2026-05-07 11:08 | -32.34895 | 152.09213 | 31190 ft | 534 kts | 8° |
| 2026-05-07 11:08 | -32.27729 | 152.11470 | 31168 ft | 531 kts | 8° |
| 2026-05-07 11:09 | -32.20638 | 152.13700 | 31133 ft | 526 kts | 7° |
| 2026-05-07 11:09 | -32.13644 | 152.15908 | 31160 ft | 516 kts | 7° |
| 2026-05-07 11:10 | -32.06703 | 152.18083 | 31166 ft | 516 kts | 7° |
| 2026-05-07 11:10 | -31.99748 | 152.20258 | 31144 ft | 516 kts | 7° |
| 2026-05-07 11:11 | -31.92857 | 152.22418 | 31160 ft | 514 kts | 7° |
| 2026-05-07 11:11 | -31.85961 | 152.24577 | 31169 ft | 511 kts | 6° |
| 2026-05-07 11:12 | -31.79091 | 152.26721 | 31178 ft | 509 kts | 6° |
| 2026-05-07 11:12 | -31.73420 | 152.28490 | 31187 ft | 504 kts | 6° |
| 2026-05-07 11:13 | -31.66656 | 152.30599 | 31174 ft | 500 kts | 6° |
| 2026-05-07 11:13 | -31.59940 | 152.32685 | 31182 ft | 497 kts | 6° |
| 2026-05-07 11:14 | -31.53253 | 152.34756 | 31172 ft | 495 kts | 6° |
| 2026-05-07 11:14 | -31.46601 | 152.36821 | 31180 ft | 494 kts | 6° |
| 2026-05-07 11:15 | -31.39957 | 152.38877 | 31194 ft | 493 kts | 6° |
| 2026-05-07 11:15 | -31.33355 | 152.40914 | 31181 ft | 494 kts | 6° |
| 2026-05-07 11:16 | -31.26712 | 152.42967 | 31175 ft | 494 kts | 5° |
| 2026-05-07 11:16 | -31.20065 | 152.45013 | 31174 ft | 494 kts | 6° |
| 2026-05-07 11:17 | -31.13419 | 152.47041 | 31171 ft | 492 kts | 5° |
| 2026-05-07 11:17 | -31.06798 | 152.49091 | 31182 ft | 491 kts | 5° |
| 2026-05-07 11:18 | -31.00189 | 152.51128 | 31193 ft | 490 kts | 5° |
| 2026-05-07 11:18 | -30.93595 | 152.53147 | 31201 ft | 489 kts | 5° |
| 2026-05-07 11:19 | -30.87013 | 152.55155 | 31166 ft | 488 kts | 5° |
| 2026-05-07 11:19 | -30.80504 | 152.57147 | 31174 ft | 485 kts | 4° |
| 2026-05-07 11:20 | -30.73996 | 152.59339 | 31171 ft | 488 kts | 7° |
| 2026-05-07 11:20 | -30.67514 | 152.61762 | 31174 ft | 489 kts | 8° |
| 2026-05-07 11:21 | -30.61022 | 152.64164 | 31134 ft | 489 kts | 7° |
| 2026-05-07 11:21 | -30.54524 | 152.66524 | 31175 ft | 488 kts | 7° |
| 2026-05-07 11:22 | -30.48025 | 152.68874 | 31171 ft | 490 kts | 7° |
| 2026-05-07 11:22 | -30.41529 | 152.71216 | 31172 ft | 492 kts | 7° |
| 2026-05-07 11:23 | -30.34982 | 152.73570 | 31160 ft | 493 kts | 7° |
| 2026-05-07 11:23 | -30.28424 | 152.75930 | 31169 ft | 493 kts | 7° |
| 2026-05-07 11:24 | -30.21904 | 152.78275 | 31165 ft | 493 kts | 7° |
| 2026-05-07 11:24 | -30.15313 | 152.80640 | 31134 ft | 493 kts | 7° |
| 2026-05-07 11:25 | -30.08810 | 152.82971 | 31158 ft | 490 kts | 7° |
| 2026-05-07 11:25 | -30.02312 | 152.85291 | 31159 ft | 488 kts | 7° |
| 2026-05-07 11:26 | -29.95822 | 152.87610 | 31155 ft | 486 kts | 7° |
| 2026-05-07 11:26 | -29.89399 | 152.89902 | 31143 ft | 485 kts | 7° |
| 2026-05-07 11:27 | -29.82949 | 152.92198 | 31144 ft | 484 kts | 7° |
| 2026-05-07 11:27 | -29.76505 | 152.94489 | 31145 ft | 484 kts | 7° |
| 2026-05-07 11:28 | -29.70072 | 152.96773 | 31149 ft | 484 kts | 7° |
| 2026-05-07 11:28 | -29.63635 | 152.99057 | 31131 ft | 484 kts | 7° |
| 2026-05-07 11:29 | -29.57231 | 153.01325 | 31127 ft | 484 kts | 7° |
| 2026-05-07 11:29 | -29.50786 | 153.03605 | 31133 ft | 484 kts | 7° |
| 2026-05-07 11:30 | -29.44338 | 153.05884 | 31107 ft | 485 kts | 7° |
| 2026-05-07 11:30 | -29.37880 | 153.08163 | 31123 ft | 485 kts | 7° |
| 2026-05-07 11:31 | -29.31413 | 153.10444 | 31128 ft | 486 kts | 7° |
| 2026-05-07 11:31 | -29.24980 | 153.12706 | 31125 ft | 487 kts | 7° |
| 2026-05-07 11:32 | -29.15269 | 153.16129 | 31118 ft | 485 kts | 6° |
| 2026-05-07 11:33 | -29.08818 | 153.18397 | 31114 ft | 484 kts | 6° |
| 2026-05-07 11:33 | -29.02390 | 153.20654 | 31118 ft | 482 kts | 6° |
| 2026-05-07 11:34 | -28.95973 | 153.22904 | 31085 ft | 481 kts | 6° |
| 2026-05-07 11:34 | -28.89619 | 153.25130 | 31115 ft | 480 kts | 6° |
| 2026-05-07 11:35 | -28.83239 | 153.27361 | 31113 ft | 479 kts | 6° |
| 2026-05-07 11:35 | -28.76862 | 153.29588 | 31109 ft | 479 kts | 6° |
| 2026-05-07 11:36 | -28.70480 | 153.31813 | 31091 ft | 479 kts | 5° |
| 2026-05-07 11:36 | -28.64106 | 153.34035 | 31113 ft | 479 kts | 5° |
| 2026-05-07 11:37 | -28.57727 | 153.36255 | 31110 ft | 480 kts | 5° |
| 2026-05-07 11:37 | -28.51340 | 153.38473 | 31106 ft | 480 kts | 5° |
| 2026-05-07 11:38 | -28.44987 | 153.40677 | 31080 ft | 479 kts | 5° |
| 2026-05-07 11:38 | -28.38609 | 153.42892 | 31065 ft | 480 kts | 5° |
| 2026-05-07 11:39 | -28.32200 | 153.45115 | 31062 ft | 480 kts | 4° |
| 2026-05-07 11:39 | -28.25811 | 153.47322 | 31049 ft | 480 kts | 4° |
| 2026-05-07 11:40 | -28.19484 | 153.49697 | 31035 ft | 490 kts | 12° |
| 2026-05-07 11:40 | -28.16407 | 153.51478 | 31054 ft | 502 kts | 19° |
| 2026-05-07 11:40 | -28.13454 | 153.53672 | 31041 ft | 514 kts | 26° |
| 2026-05-07 11:41 | -28.07972 | 153.59041 | 31097 ft | 523 kts | 31° |
| 2026-05-07 11:41 | -28.02550 | 153.64523 | 31099 ft | 521 kts | 30° |
| 2026-05-07 11:42 | -27.97082 | 153.69920 | 31085 ft | 521 kts | 30° |
| 2026-05-07 11:42 | -27.91604 | 153.75289 | 31076 ft | 521 kts | 30° |
| 2026-05-07 11:42 | -27.89015 | 153.78138 | 31070 ft | 532 kts | 38° |
| 2026-05-07 11:43 | -27.86684 | 153.81450 | 31083 ft | 543 kts | 45° |
| 2026-05-07 11:43 | -27.82965 | 153.89044 | 31088 ft | 559 kts | 58° |
| 2026-05-07 11:44 | -27.79842 | 153.97101 | 31085 ft | 560 kts | 58° |
| 2026-05-07 11:44 | -27.76722 | 154.05100 | 31065 ft | 559 kts | 58° |
| 2026-05-07 11:45 | -27.73502 | 154.13158 | 31073 ft | 560 kts | 57° |
| 2026-05-07 11:45 | -27.70281 | 154.21121 | 31075 ft | 562 kts | 57° |
| 2026-05-07 11:46 | -27.67030 | 154.29144 | 31075 ft | 563 kts | 57° |
| 2026-05-07 11:46 | -27.63774 | 154.37179 | 31060 ft | 563 kts | 57° |
| 2026-05-07 11:47 | -27.60515 | 154.45218 | 31035 ft | 563 kts | 57° |
| 2026-05-07 11:47 | -27.57249 | 154.53254 | 31058 ft | 563 kts | 57° |
| 2026-05-07 11:48 | -27.53981 | 154.61274 | 31059 ft | 563 kts | 57° |
| 2026-05-07 11:48 | -27.50705 | 154.69299 | 31061 ft | 563 kts | 57° |
| 2026-05-07 11:49 | -27.47444 | 154.77271 | 31055 ft | 563 kts | 57° |
| 2026-05-07 11:49 | -27.44161 | 154.85283 | 31056 ft | 563 kts | 57° |
| 2026-05-07 11:50 | -27.40880 | 154.93275 | 31047 ft | 561 kts | 57° |
| 2026-05-07 11:50 | -27.37596 | 155.01259 | 31053 ft | 561 kts | 57° |
| 2026-05-07 11:51 | -27.34312 | 155.09222 | 31052 ft | 561 kts | 57° |
| 2026-05-07 11:51 | -27.31026 | 155.17175 | 31054 ft | 561 kts | 57° |
| 2026-05-07 11:52 | -27.27731 | 155.25135 | 31059 ft | 561 kts | 56° |
| 2026-05-07 11:52 | -27.24437 | 155.33078 | 31006 ft | 561 kts | 57° |
| 2026-05-07 11:53 | -27.21138 | 155.41021 | 31044 ft | 560 kts | 57° |
| 2026-05-07 11:53 | -27.17838 | 155.48945 | 31045 ft | 560 kts | 57° |
| 2026-05-07 11:54 | -27.14555 | 155.56817 | 31049 ft | 560 kts | 57° |
| 2026-05-07 11:54 | -27.11243 | 155.64741 | 31045 ft | 560 kts | 56° |
| 2026-05-07 11:55 | -27.07930 | 155.72654 | 31049 ft | 560 kts | 56° |
| 2026-05-07 11:55 | -27.04612 | 155.80563 | 31019 ft | 559 kts | 57° |
| 2026-05-07 11:56 | -27.01305 | 155.88436 | 31038 ft | 557 kts | 56° |
| 2026-05-07 11:56 | -26.97937 | 155.96251 | 31046 ft | 553 kts | 54° |
| 2026-05-07 11:57 | -26.94395 | 156.03883 | 31046 ft | 551 kts | 53° |
| 2026-05-07 11:57 | -26.90820 | 156.11483 | 31053 ft | 551 kts | 53° |
| 2026-05-07 11:58 | -26.87275 | 156.19091 | 31049 ft | 551 kts | 54° |
| 2026-05-07 11:58 | -26.83770 | 156.26663 | 31053 ft | 549 kts | 54° |
| 2026-05-07 11:59 | -26.80260 | 156.34250 | 31041 ft | 548 kts | 54° |
| 2026-05-07 11:59 | -26.76754 | 156.41805 | 31043 ft | 546 kts | 54° |
| 2026-05-07 12:00 | -26.73838 | 156.48072 | 31043 ft | 545 kts | 54° |
| 2026-05-07 12:00 | -26.70328 | 156.55601 | 31049 ft | 545 kts | 54° |
| 2026-05-07 12:01 | -26.66815 | 156.63125 | 31048 ft | 545 kts | 54° |
| 2026-05-07 12:01 | -26.63320 | 156.70597 | 31043 ft | 545 kts | 55° |
| 2026-05-07 12:02 | -26.59801 | 156.78109 | 31051 ft | 545 kts | 55° |
| 2026-05-07 12:02 | -26.56274 | 156.85624 | 31046 ft | 546 kts | 55° |
| 2026-05-07 12:03 | -26.52743 | 156.93137 | 31039 ft | 546 kts | 55° |
| 2026-05-07 12:03 | -26.49220 | 157.00617 | 31051 ft | 547 kts | 54° |
| 2026-05-07 12:04 | -26.45672 | 157.08139 | 31050 ft | 548 kts | 54° |
| 2026-05-07 12:04 | -26.42113 | 157.15668 | 31044 ft | 547 kts | 55° |
| 2026-05-07 12:05 | -26.38580 | 157.23139 | 31037 ft | 546 kts | 55° |
| 2026-05-07 12:05 | -26.35033 | 157.30624 | 31045 ft | 544 kts | 55° |
| 2026-05-07 12:06 | -26.31496 | 157.38072 | 31047 ft | 542 kts | 55° |
| 2026-05-07 12:06 | -26.27965 | 157.45495 | 31048 ft | 541 kts | 55° |
| 2026-05-07 12:07 | -26.24441 | 157.52888 | 31049 ft | 540 kts | 55° |
| 2026-05-07 12:07 | -26.20907 | 157.60283 | 31048 ft | 542 kts | 55° |
| 2026-05-07 12:08 | -26.17376 | 157.67665 | 31053 ft | 546 kts | 55° |
| 2026-05-07 12:08 | -26.13791 | 157.75148 | 31056 ft | 549 kts | 55° |
| 2026-05-07 12:09 | -26.10186 | 157.82663 | 31056 ft | 551 kts | 55° |
| 2026-05-07 12:09 | -26.06568 | 157.90196 | 31042 ft | 552 kts | 55° |
| 2026-05-07 12:10 | -26.02937 | 157.97742 | 31046 ft | 551 kts | 55° |
| 2026-05-07 12:10 | -25.99345 | 158.05194 | 31048 ft | 550 kts | 55° |
| 2026-05-07 12:11 | -25.95731 | 158.12676 | 31042 ft | 548 kts | 55° |
| 2026-05-07 12:11 | -25.92120 | 158.20140 | 31045 ft | 547 kts | 55° |
| 2026-05-07 12:12 | -25.88511 | 158.27586 | 31049 ft | 546 kts | 55° |
| 2026-05-07 12:12 | -25.84902 | 158.35019 | 31045 ft | 546 kts | 55° |
| 2026-05-07 12:13 | -25.81314 | 158.42397 | 31048 ft | 546 kts | 55° |
| 2026-05-07 12:13 | -25.77702 | 158.49813 | 31057 ft | 545 kts | 55° |
| 2026-05-07 12:14 | -25.74090 | 158.57216 | 31056 ft | 546 kts | 55° |
| 2026-05-07 12:14 | -25.70467 | 158.64631 | 31042 ft | 546 kts | 55° |
| 2026-05-07 12:15 | -25.66858 | 158.72003 | 31054 ft | 547 kts | 55° |
| 2026-05-07 12:15 | -25.63223 | 158.79419 | 31055 ft | 547 kts | 55° |
| 2026-05-07 12:16 | -25.59577 | 158.86843 | 31052 ft | 547 kts | 55° |
| 2026-05-07 12:16 | -25.55955 | 158.94207 | 31038 ft | 546 kts | 55° |
| 2026-05-07 12:17 | -25.52318 | 159.01592 | 31046 ft | 546 kts | 55° |
| 2026-05-07 12:17 | -25.48677 | 159.08970 | 31050 ft | 545 kts | 55° |
| 2026-05-07 12:18 | -25.45032 | 159.16345 | 31049 ft | 545 kts | 55° |
| 2026-05-07 12:18 | -25.41389 | 159.23703 | 31051 ft | 545 kts | 55° |
| 2026-05-07 12:19 | -25.37765 | 159.31011 | 31050 ft | 545 kts | 55° |
| 2026-05-07 12:19 | -25.34116 | 159.38360 | 31040 ft | 544 kts | 55° |
| 2026-05-07 12:20 | -25.30469 | 159.45691 | 31048 ft | 543 kts | 55° |
| 2026-05-07 12:20 | -25.26822 | 159.53010 | 31050 ft | 543 kts | 55° |
| 2026-05-07 12:21 | -25.23169 | 159.60328 | 31045 ft | 543 kts | 55° |
| 2026-05-07 12:21 | -25.19518 | 159.67635 | 31053 ft | 543 kts | 55° |
| 2026-05-07 12:22 | -25.15866 | 159.74930 | 31049 ft | 543 kts | 55° |
| 2026-05-07 12:22 | -25.12228 | 159.82184 | 31032 ft | 543 kts | 56° |
| 2026-05-07 12:23 | -25.08573 | 159.89463 | 31038 ft | 543 kts | 56° |
| 2026-05-07 12:23 | -25.04908 | 159.96749 | 31059 ft | 543 kts | 56° |
| 2026-05-07 12:24 | -25.01238 | 160.04034 | 31041 ft | 544 kts | 56° |
| 2026-05-07 12:24 | -24.97556 | 160.11332 | 31046 ft | 544 kts | 55° |
| 2026-05-07 12:25 | -24.93898 | 160.18571 | 31042 ft | 544 kts | 55° |
| 2026-05-07 12:25 | -24.90206 | 160.25865 | 31005 ft | 545 kts | 56° |
| 2026-05-07 12:26 | -24.86510 | 160.33156 | 31042 ft | 545 kts | 56° |
| 2026-05-07 12:26 | -24.82805 | 160.40453 | 31048 ft | 545 kts | 56° |
| 2026-05-07 12:27 | -24.79093 | 160.47753 | 31050 ft | 546 kts | 56° |
| 2026-05-07 12:27 | -24.75377 | 160.55051 | 31047 ft | 546 kts | 56° |
| 2026-05-07 12:28 | -24.71679 | 160.62301 | 31045 ft | 546 kts | 56° |
| 2026-05-07 12:28 | -24.67955 | 160.69591 | 31042 ft | 546 kts | 56° |
| 2026-05-07 12:29 | -24.64233 | 160.76866 | 31033 ft | 545 kts | 56° |
| 2026-05-07 12:29 | -24.60515 | 160.84123 | 31038 ft | 545 kts | 56° |
| 2026-05-07 12:30 | -24.56781 | 160.91396 | 31042 ft | 545 kts | 56° |
| 2026-05-07 12:30 | -24.53079 | 160.98599 | 31044 ft | 545 kts | 56° |
| 2026-05-07 12:31 | -24.49344 | 161.05855 | 31043 ft | 545 kts | 56° |
| 2026-05-07 12:31 | -24.45609 | 161.13099 | 31041 ft | 545 kts | 55° |
| 2026-05-07 12:32 | -24.41881 | 161.20320 | 31032 ft | 545 kts | 55° |
| 2026-05-07 12:32 | -24.38139 | 161.27557 | 31040 ft | 544 kts | 55° |
| 2026-05-07 12:33 | -24.32528 | 161.38386 | 31040 ft | 544 kts | 55° |
| 2026-05-07 12:33 | -24.28790 | 161.45588 | 31040 ft | 543 kts | 55° |
| 2026-05-07 12:34 | -24.25048 | 161.52785 | 31038 ft | 543 kts | 55° |
| 2026-05-07 12:34 | -24.21301 | 161.59982 | 31037 ft | 543 kts | 55° |
| 2026-05-07 12:35 | -24.17546 | 161.67183 | 31023 ft | 543 kts | 55° |
| 2026-05-07 12:35 | -24.13822 | 161.74316 | 31036 ft | 543 kts | 55° |
| 2026-05-07 12:36 | -24.10046 | 161.81537 | 31040 ft | 543 kts | 55° |
| 2026-05-07 12:36 | -24.06313 | 161.88664 | 31038 ft | 543 kts | 55° |
| 2026-05-07 12:37 | -24.02552 | 161.95836 | 31038 ft | 544 kts | 55° |
| 2026-05-07 12:37 | -23.98784 | 162.03009 | 31038 ft | 544 kts | 55° |
| 2026-05-07 12:38 | -23.95014 | 162.10176 | 31038 ft | 544 kts | 55° |
| 2026-05-07 12:38 | -23.91231 | 162.17358 | 31032 ft | 543 kts | 55° |
| 2026-05-07 12:39 | -23.87474 | 162.24480 | 31032 ft | 542 kts | 55° |
| 2026-05-07 12:39 | -23.83699 | 162.31624 | 31035 ft | 542 kts | 55° |
| 2026-05-07 12:40 | -23.79922 | 162.38761 | 31037 ft | 543 kts | 55° |
| 2026-05-07 12:40 | -23.76133 | 162.45912 | 31038 ft | 543 kts | 55° |
| 2026-05-07 12:41 | -23.72352 | 162.53038 | 31037 ft | 543 kts | 55° |
| 2026-05-07 12:41 | -23.68584 | 162.60128 | 31037 ft | 543 kts | 55° |
| 2026-05-07 12:42 | -23.64786 | 162.67265 | 31041 ft | 543 kts | 55° |
| 2026-05-07 12:42 | -23.60982 | 162.74403 | 31042 ft | 544 kts | 55° |
| 2026-05-07 12:43 | -23.57177 | 162.81533 | 31038 ft | 544 kts | 55° |
| 2026-05-07 12:43 | -23.53390 | 162.88621 | 31038 ft | 544 kts | 55° |
| 2026-05-07 12:44 | -23.49575 | 162.95751 | 31037 ft | 544 kts | 55° |
| 2026-05-07 12:44 | -23.45526 | 163.02673 | 31027 ft | 538 kts | 47° |
| 2026-05-07 12:45 | -23.40884 | 163.09062 | 31025 ft | 537 kts | 46° |
| 2026-05-07 12:45 | -23.36245 | 163.15398 | 31038 ft | 537 kts | 46° |
| 2026-05-07 12:46 | -23.31613 | 163.21784 | 31037 ft | 538 kts | 46° |
| 2026-05-07 12:46 | -23.26993 | 163.28190 | 31035 ft | 538 kts | 46° |
| 2026-05-07 12:47 | -23.22378 | 163.34591 | 31031 ft | 538 kts | 47° |
| 2026-05-07 12:47 | -23.17777 | 163.40959 | 31036 ft | 538 kts | 46° |
| 2026-05-07 12:48 | -23.13903 | 163.46311 | 31030 ft | 537 kts | 47° |
| 2026-05-07 12:48 | -23.08534 | 163.53720 | 31035 ft | 537 kts | 47° |
| 2026-05-07 12:49 | -23.04693 | 163.59013 | 31035 ft | 537 kts | 47° |
| 2026-05-07 12:49 | -23.00062 | 163.65386 | 31034 ft | 536 kts | 47° |
| 2026-05-07 12:50 | -22.95431 | 163.71753 | 31030 ft | 536 kts | 47° |
| 2026-05-07 12:50 | -22.90802 | 163.78109 | 31031 ft | 536 kts | 47° |
| 2026-05-07 12:51 | -22.86205 | 163.84413 | 31026 ft | 536 kts | 47° |
| 2026-05-07 12:51 | -22.81573 | 163.90759 | 31030 ft | 536 kts | 47° |
| 2026-05-07 12:52 | -22.76942 | 163.97095 | 31027 ft | 536 kts | 47° |
| 2026-05-07 12:52 | -22.72308 | 164.03427 | 31027 ft | 536 kts | 47° |
| 2026-05-07 12:53 | -22.67704 | 164.09710 | 31028 ft | 536 kts | 47° |
| 2026-05-07 12:53 | -22.63059 | 164.16041 | 31027 ft | 536 kts | 47° |
| 2026-05-07 12:54 | -22.58414 | 164.22366 | 31029 ft | 536 kts | 47° |
| 2026-05-07 12:54 | -22.53767 | 164.28685 | 31028 ft | 536 kts | 47° |
| 2026-05-07 12:55 | -22.49127 | 164.34988 | 31019 ft | 536 kts | 47° |
| 2026-05-07 12:55 | -22.44477 | 164.41296 | 31025 ft | 536 kts | 47° |
| 2026-05-07 12:56 | -22.39859 | 164.47553 | 31024 ft | 536 kts | 47° |
| 2026-05-07 12:56 | -22.35209 | 164.53846 | 31012 ft | 536 kts | 47° |
| 2026-05-07 12:57 | -22.30555 | 164.60138 | 31022 ft | 535 kts | 47° |
| 2026-05-07 12:57 | -22.25899 | 164.66423 | 31017 ft | 535 kts | 47° |
| 2026-05-07 12:58 | -22.21270 | 164.72665 | 31022 ft | 535 kts | 47° |
| 2026-05-07 12:58 | -22.16609 | 164.78943 | 31020 ft | 536 kts | 47° |
| 2026-05-07 12:59 | -22.11944 | 164.85220 | 31023 ft | 536 kts | 47° |
| 2026-05-07 12:59 | -22.07269 | 164.91502 | 31003 ft | 536 kts | 47° |
| 2026-05-07 13:00 | -22.02600 | 164.97770 | 31015 ft | 536 kts | 47° |
| 2026-05-07 13:00 | -21.97930 | 165.04030 | 31018 ft | 536 kts | 47° |
| 2026-05-07 13:01 | -21.93288 | 165.10247 | 31020 ft | 536 kts | 47° |
| 2026-05-07 13:01 | -21.88606 | 165.16508 | 31020 ft | 537 kts | 47° |
| 2026-05-07 13:02 | -21.83915 | 165.22775 | 31020 ft | 537 kts | 47° |
| 2026-05-07 13:02 | -21.79223 | 165.29036 | 31024 ft | 537 kts | 47° |
| 2026-05-07 13:03 | -21.74536 | 165.35284 | 31026 ft | 536 kts | 47° |
| 2026-05-07 13:03 | -21.69849 | 165.41525 | 31029 ft | 536 kts | 47° |
| 2026-05-07 13:04 | -21.65195 | 165.47715 | 31030 ft | 535 kts | 47° |
| 2026-05-07 13:04 | -21.60517 | 165.53928 | 31041 ft | 535 kts | 47° |
| 2026-05-07 13:05 | -21.55830 | 165.60146 | 31047 ft | 534 kts | 47° |
| 2026-05-07 13:05 | -21.51143 | 165.66359 | 31047 ft | 534 kts | 47° |
| 2026-05-07 13:06 | -21.46462 | 165.72557 | 31044 ft | 534 kts | 47° |
| 2026-05-07 13:06 | -21.41814 | 165.78700 | 31041 ft | 533 kts | 47° |
| 2026-05-07 13:07 | -21.37131 | 165.84887 | 31038 ft | 533 kts | 47° |
| 2026-05-07 13:07 | -21.32445 | 165.91069 | 31033 ft | 533 kts | 47° |
| 2026-05-07 13:08 | -21.27745 | 165.97261 | 31031 ft | 534 kts | 47° |
| 2026-05-07 13:08 | -21.23089 | 166.03391 | 31030 ft | 534 kts | 47° |
| 2026-05-07 13:09 | -21.18389 | 166.09572 | 31018 ft | 534 kts | 47° |
| 2026-05-07 13:09 | -21.13696 | 166.15737 | 31027 ft | 533 kts | 47° |
| 2026-05-07 13:10 | -21.09032 | 166.21856 | 31025 ft | 534 kts | 47° |
| 2026-05-07 13:10 | -21.04332 | 166.28015 | 31024 ft | 534 kts | 47° |
| 2026-05-07 13:11 | -20.99627 | 166.34175 | 31024 ft | 534 kts | 47° |
| 2026-05-07 13:11 | -20.94921 | 166.40328 | 31027 ft | 534 kts | 47° |
| 2026-05-07 13:12 | -20.90211 | 166.46481 | 31028 ft | 534 kts | 47° |
| 2026-05-07 13:12 | -20.85493 | 166.52637 | 31025 ft | 535 kts | 47° |
| 2026-05-07 13:13 | -20.80774 | 166.58788 | 31029 ft | 535 kts | 47° |
| 2026-05-07 13:13 | -20.76078 | 166.64903 | 31027 ft | 535 kts | 47° |
| 2026-05-07 13:14 | -20.71344 | 166.71059 | 31023 ft | 535 kts | 47° |
| 2026-05-07 13:14 | -20.66614 | 166.77204 | 31022 ft | 535 kts | 47° |
| 2026-05-07 13:15 | -20.61876 | 166.83353 | 31013 ft | 535 kts | 47° |
| 2026-05-07 13:15 | -20.57142 | 166.89490 | 31019 ft | 534 kts | 47° |
| 2026-05-07 13:16 | -20.52448 | 166.95569 | 31019 ft | 534 kts | 47° |
| 2026-05-07 13:16 | -20.47721 | 167.01683 | 31019 ft | 534 kts | 47° |
| 2026-05-07 13:17 | -20.42995 | 167.07790 | 31020 ft | 534 kts | 47° |
| 2026-05-07 13:17 | -20.38258 | 167.13904 | 31014 ft | 534 kts | 47° |
| 2026-05-07 13:18 | -20.33525 | 167.20008 | 31017 ft | 534 kts | 47° |
| 2026-05-07 13:18 | -20.28790 | 167.26108 | 31012 ft | 534 kts | 47° |
| 2026-05-07 13:19 | -20.24088 | 167.32158 | 31015 ft | 534 kts | 47° |
| 2026-05-07 13:19 | -20.19346 | 167.38253 | 31013 ft | 534 kts | 47° |
| 2026-05-07 13:20 | -20.14603 | 167.44343 | 31013 ft | 534 kts | 47° |
| 2026-05-07 13:20 | -20.09857 | 167.50431 | 31010 ft | 534 kts | 47° |
| 2026-05-07 13:21 | -20.05108 | 167.56516 | 31008 ft | 534 kts | 47° |
| 2026-05-07 13:21 | -20.00341 | 167.62617 | 31007 ft | 534 kts | 48° |
| 2026-05-07 13:22 | -19.95592 | 167.68690 | 31005 ft | 534 kts | 48° |
| 2026-05-07 13:22 | -19.90873 | 167.74718 | 31005 ft | 534 kts | 48° |
| 2026-05-07 13:23 | -19.86115 | 167.80789 | 31003 ft | 534 kts | 47° |
| 2026-05-07 13:23 | -19.81356 | 167.86856 | 31004 ft | 534 kts | 47° |
| 2026-05-07 13:24 | -19.76593 | 167.92921 | 30997 ft | 534 kts | 47° |
| 2026-05-07 13:24 | -19.71855 | 167.98948 | 30991 ft | 534 kts | 48° |
| 2026-05-07 13:25 | -19.67093 | 168.05000 | 31000 ft | 533 kts | 48° |
| 2026-05-07 13:25 | -19.62330 | 168.11047 | 31001 ft | 533 kts | 48° |
| 2026-05-07 13:26 | -19.57565 | 168.17090 | 31012 ft | 533 kts | 48° |
| 2026-05-07 13:26 | -19.52798 | 168.23129 | 30994 ft | 533 kts | 48° |
| 2026-05-07 13:27 | -19.48068 | 168.29116 | 30998 ft | 533 kts | 47° |
| 2026-05-07 13:27 | -19.43299 | 168.35145 | 30995 ft | 533 kts | 48° |
| 2026-05-07 13:28 | -19.38533 | 168.41166 | 30995 ft | 533 kts | 48° |
| 2026-05-07 13:28 | -19.33765 | 168.47182 | 30984 ft | 533 kts | 48° |
| 2026-05-07 13:29 | -19.28999 | 168.53190 | 30985 ft | 532 kts | 48° |
| 2026-05-07 13:29 | -19.24234 | 168.59192 | 31000 ft | 532 kts | 48° |
| 2026-05-07 13:30 | -19.19498 | 168.65150 | 30997 ft | 532 kts | 48° |
| 2026-05-07 13:30 | -19.14734 | 168.71138 | 30982 ft | 532 kts | 48° |
| 2026-05-07 13:31 | -19.09960 | 168.77132 | 30989 ft | 532 kts | 48° |
| 2026-05-07 13:31 | -19.05191 | 168.83114 | 30990 ft | 532 kts | 48° |
| 2026-05-07 13:32 | -19.00422 | 168.89091 | 30987 ft | 531 kts | 48° |
| 2026-05-07 13:32 | -18.95678 | 168.95031 | 30983 ft | 531 kts | 48° |
| 2026-05-07 13:33 | -18.90910 | 169.00994 | 30986 ft | 531 kts | 48° |
| 2026-05-07 13:33 | -18.86147 | 169.06946 | 30989 ft | 531 kts | 48° |
| 2026-05-07 13:34 | -18.78985 | 169.15881 | 30974 ft | 530 kts | 48° |
| 2026-05-07 13:35 | -18.74254 | 169.21782 | 30976 ft | 530 kts | 48° |
| 2026-05-07 13:35 | -18.69495 | 169.27710 | 30986 ft | 529 kts | 48° |
| 2026-05-07 13:36 | -18.64725 | 169.33642 | 30974 ft | 529 kts | 48° |
| 2026-05-07 13:36 | -18.59958 | 169.39567 | 30978 ft | 529 kts | 48° |
| 2026-05-07 13:37 | -18.55193 | 169.45484 | 30984 ft | 529 kts | 48° |
| 2026-05-07 13:37 | -18.50449 | 169.51370 | 30976 ft | 530 kts | 48° |
| 2026-05-07 13:38 | -18.45674 | 169.57288 | 30970 ft | 529 kts | 48° |
| 2026-05-07 13:38 | -18.41705 | 169.62204 | 30968 ft | 529 kts | 48° |
| 2026-05-07 13:39 | -18.36938 | 169.68103 | 30972 ft | 529 kts | 48° |
| 2026-05-07 13:39 | -18.32167 | 169.74001 | 30971 ft | 528 kts | 48° |
| 2026-05-07 13:40 | -18.27394 | 169.79895 | 30969 ft | 528 kts | 48° |
| 2026-05-07 13:40 | -18.22647 | 169.85752 | 30969 ft | 528 kts | 48° |
| 2026-05-07 13:41 | -18.17876 | 169.91634 | 30970 ft | 529 kts | 48° |
| 2026-05-07 13:41 | -18.13097 | 169.97521 | 30961 ft | 528 kts | 48° |
| 2026-05-07 13:42 | -18.08319 | 170.03400 | 30973 ft | 528 kts | 48° |
| 2026-05-07 13:42 | -18.03542 | 170.09272 | 30969 ft | 528 kts | 48° |
| 2026-05-07 13:43 | -17.98761 | 170.15145 | 30966 ft | 528 kts | 48° |
| 2026-05-07 13:43 | -17.94014 | 170.20971 | 30967 ft | 528 kts | 48° |
| 2026-05-07 13:44 | -17.89234 | 170.26832 | 30964 ft | 528 kts | 48° |
| 2026-05-07 13:44 | -17.84430 | 170.32716 | 30965 ft | 529 kts | 48° |
| 2026-05-07 13:45 | -17.79673 | 170.38539 | 30967 ft | 529 kts | 48° |
| 2026-05-07 13:45 | -17.74876 | 170.44406 | 30966 ft | 529 kts | 48° |
| 2026-05-07 13:46 | -17.70078 | 170.50270 | 30959 ft | 529 kts | 48° |
| 2026-05-07 13:46 | -17.65428 | 170.56263 | 30957 ft | 530 kts | 51° |
| 2026-05-07 13:47 | -17.60927 | 170.62333 | 30958 ft | 530 kts | 51° |
| 2026-05-07 13:47 | -17.56397 | 170.68419 | 30955 ft | 530 kts | 51° |
| 2026-05-07 13:48 | -17.51823 | 170.74496 | 30946 ft | 529 kts | 51° |
| 2026-05-07 13:48 | -17.47249 | 170.80539 | 30955 ft | 529 kts | 51° |
| 2026-05-07 13:49 | -17.42696 | 170.86549 | 30955 ft | 528 kts | 51° |
| 2026-05-07 13:49 | -17.38133 | 170.92570 | 30953 ft | 528 kts | 51° |
| 2026-05-07 13:50 | -17.33568 | 170.98592 | 30949 ft | 528 kts | 51° |
| 2026-05-07 13:50 | -17.29003 | 171.04607 | 30951 ft | 528 kts | 51° |
| 2026-05-07 13:51 | -17.24437 | 171.10620 | 30950 ft | 528 kts | 51° |
| 2026-05-07 13:51 | -17.19857 | 171.16644 | 30940 ft | 528 kts | 51° |
| 2026-05-07 13:52 | -17.15306 | 171.22626 | 30948 ft | 527 kts | 51° |
| 2026-05-07 13:52 | -17.10738 | 171.28624 | 30942 ft | 527 kts | 51° |
| 2026-05-07 13:53 | -17.06165 | 171.34623 | 30947 ft | 527 kts | 51° |
| 2026-05-07 13:53 | -17.01594 | 171.40616 | 30944 ft | 527 kts | 51° |
| 2026-05-07 13:54 | -16.97023 | 171.46603 | 30940 ft | 527 kts | 51° |
| 2026-05-07 13:54 | -16.92448 | 171.52589 | 30939 ft | 527 kts | 51° |
| 2026-05-07 13:55 | -16.87871 | 171.58574 | 30938 ft | 527 kts | 51° |
| 2026-05-07 13:55 | -16.83321 | 171.64517 | 30938 ft | 526 kts | 51° |
| 2026-05-07 13:56 | -16.78746 | 171.70488 | 30940 ft | 526 kts | 51° |
| 2026-05-07 13:56 | -16.74171 | 171.76455 | 30936 ft | 526 kts | 51° |
| 2026-05-07 13:57 | -16.69595 | 171.82417 | 30933 ft | 526 kts | 51° |
| 2026-05-07 13:57 | -16.65020 | 171.88373 | 30932 ft | 526 kts | 51° |
| 2026-05-07 13:58 | -16.60444 | 171.94325 | 30936 ft | 526 kts | 51° |
| 2026-05-07 13:58 | -16.55865 | 172.00277 | 30933 ft | 526 kts | 51° |
| 2026-05-07 13:59 | -16.51286 | 172.06222 | 30933 ft | 526 kts | 51° |
| 2026-05-07 13:59 | -16.46734 | 172.12129 | 30929 ft | 525 kts | 51° |
| 2026-05-07 14:00 | -16.42155 | 172.18065 | 30932 ft | 525 kts | 51° |
| 2026-05-07 14:00 | -16.37569 | 172.24005 | 30937 ft | 525 kts | 51° |
| 2026-05-07 14:01 | -16.32988 | 172.29934 | 30928 ft | 525 kts | 51° |
| 2026-05-07 14:01 | -16.28405 | 172.35861 | 30921 ft | 525 kts | 51° |
| 2026-05-07 14:02 | -16.23842 | 172.41756 | 30933 ft | 525 kts | 51° |
| 2026-05-07 14:02 | -16.19251 | 172.47682 | 30922 ft | 525 kts | 51° |
| 2026-05-07 14:03 | -16.14662 | 172.53602 | 30929 ft | 525 kts | 51° |
| 2026-05-07 14:03 | -16.10075 | 172.59514 | 30924 ft | 524 kts | 51° |
| 2026-05-07 14:04 | -16.05490 | 172.65419 | 30918 ft | 524 kts | 51° |
| 2026-05-07 14:04 | -16.00935 | 172.71281 | 30922 ft | 524 kts | 51° |
| 2026-05-07 14:05 | -15.96353 | 172.77172 | 30922 ft | 524 kts | 51° |
| 2026-05-07 14:05 | -15.91769 | 172.83062 | 30917 ft | 524 kts | 51° |
| 2026-05-07 14:06 | -15.87179 | 172.88954 | 30914 ft | 524 kts | 51° |
| 2026-05-07 14:06 | -15.82592 | 172.94838 | 30918 ft | 524 kts | 51° |
| 2026-05-07 14:07 | -15.78030 | 173.00684 | 30919 ft | 523 kts | 51° |
| 2026-05-07 14:07 | -15.73446 | 173.06555 | 30917 ft | 523 kts | 51° |
| 2026-05-07 14:08 | -15.68853 | 173.12432 | 30914 ft | 523 kts | 51° |
| 2026-05-07 14:08 | -15.64264 | 173.18299 | 30915 ft | 523 kts | 51° |
| 2026-05-07 14:09 | -15.59673 | 173.24165 | 30912 ft | 523 kts | 51° |
| 2026-05-07 14:09 | -15.55113 | 173.29987 | 30913 ft | 523 kts | 51° |
| 2026-05-07 14:10 | -15.50511 | 173.35857 | 30912 ft | 523 kts | 51° |
| 2026-05-07 14:10 | -15.45910 | 173.41721 | 30912 ft | 523 kts | 51° |
| 2026-05-07 14:11 | -15.41313 | 173.47577 | 30915 ft | 523 kts | 51° |
| 2026-05-07 14:11 | -15.36743 | 173.53393 | 30912 ft | 523 kts | 51° |
| 2026-05-07 14:12 | -15.32149 | 173.59234 | 30908 ft | 523 kts | 51° |
| 2026-05-07 14:12 | -15.27551 | 173.65078 | 30910 ft | 523 kts | 51° |
| 2026-05-07 14:13 | -15.22956 | 173.70912 | 30911 ft | 523 kts | 51° |
| 2026-05-07 14:13 | -15.18342 | 173.76766 | 30905 ft | 523 kts | 51° |
| 2026-05-07 14:14 | -15.13741 | 173.82599 | 30912 ft | 523 kts | 51° |
| 2026-05-07 14:14 | -15.09163 | 173.88400 | 30907 ft | 522 kts | 51° |
| 2026-05-07 14:15 | -15.04560 | 173.94229 | 30911 ft | 522 kts | 51° |
| 2026-05-07 14:15 | -14.99940 | 174.00035 | 30910 ft | 522 kts | 49° |
| 2026-05-07 14:16 | -14.94832 | 174.05386 | 30906 ft | 522 kts | 44° |
| 2026-05-07 14:16 | -14.89602 | 174.10619 | 30907 ft | 523 kts | 44° |
| 2026-05-07 14:17 | -14.84425 | 174.15828 | 30906 ft | 523 kts | 44° |
| 2026-05-07 14:17 | -14.79235 | 174.21089 | 30904 ft | 523 kts | 44° |
| 2026-05-07 14:18 | -14.74041 | 174.26364 | 30903 ft | 522 kts | 44° |
| 2026-05-07 14:18 | -14.68859 | 174.31623 | 30904 ft | 522 kts | 44° |
| 2026-05-07 14:19 | -14.63666 | 174.36886 | 30902 ft | 522 kts | 44° |
| 2026-05-07 14:19 | -14.58479 | 174.42138 | 30901 ft | 522 kts | 44° |
| 2026-05-07 14:20 | -14.53292 | 174.47387 | 30901 ft | 522 kts | 44° |
| 2026-05-07 14:20 | -14.48137 | 174.52599 | 30902 ft | 522 kts | 44° |
| 2026-05-07 14:21 | -14.42946 | 174.57845 | 30899 ft | 522 kts | 44° |
| 2026-05-07 14:21 | -14.37733 | 174.63109 | 30898 ft | 522 kts | 44° |
| 2026-05-07 14:22 | -14.32532 | 174.68356 | 30903 ft | 522 kts | 44° |
| 2026-05-07 14:22 | -14.27365 | 174.73568 | 30896 ft | 523 kts | 44° |
| 2026-05-07 14:23 | -14.22161 | 174.78812 | 30893 ft | 523 kts | 44° |
| 2026-05-07 14:23 | -14.16951 | 174.84058 | 30898 ft | 523 kts | 44° |
| 2026-05-07 14:24 | -14.11740 | 174.89302 | 30897 ft | 523 kts | 44° |
| 2026-05-07 14:24 | -14.06536 | 174.94536 | 30895 ft | 523 kts | 44° |
| 2026-05-07 14:25 | -14.01327 | 174.99770 | 30894 ft | 522 kts | 44° |
| 2026-05-07 14:25 | -13.96125 | 175.04995 | 30892 ft | 522 kts | 45° |
| 2026-05-07 14:26 | -13.90944 | 175.10195 | 30892 ft | 522 kts | 44° |
| 2026-05-07 14:26 | -13.86614 | 175.14538 | 30891 ft | 522 kts | 44° |
| 2026-05-07 14:27 | -13.81409 | 175.19756 | 30890 ft | 522 kts | 44° |
| 2026-05-07 14:27 | -13.76222 | 175.24952 | 30891 ft | 522 kts | 45° |
| 2026-05-07 14:28 | -13.71012 | 175.30168 | 30885 ft | 522 kts | 45° |
| 2026-05-07 14:28 | -13.65808 | 175.35375 | 30888 ft | 522 kts | 45° |
| 2026-05-07 14:29 | -13.60600 | 175.40581 | 30888 ft | 522 kts | 45° |
| 2026-05-07 14:29 | -13.55390 | 175.45788 | 30890 ft | 522 kts | 45° |
| 2026-05-07 14:30 | -13.50212 | 175.50957 | 30887 ft | 522 kts | 45° |
| 2026-05-07 14:30 | -13.44999 | 175.56160 | 30887 ft | 522 kts | 45° |
| 2026-05-07 14:31 | -13.39770 | 175.61374 | 30888 ft | 522 kts | 45° |
| 2026-05-07 14:31 | -13.34559 | 175.66568 | 30884 ft | 522 kts | 45° |
| 2026-05-07 14:32 | -13.29375 | 175.71731 | 30885 ft | 522 kts | 45° |
| 2026-05-07 14:32 | -13.24165 | 175.76917 | 30885 ft | 522 kts | 45° |
| 2026-05-07 14:33 | -13.18951 | 175.82103 | 30885 ft | 522 kts | 45° |
| 2026-05-07 14:33 | -13.13730 | 175.87294 | 30883 ft | 522 kts | 45° |
| 2026-05-07 14:34 | -13.08518 | 175.92472 | 30885 ft | 522 kts | 45° |
| 2026-05-07 14:34 | -13.03301 | 175.97651 | 30885 ft | 522 kts | 45° |
| 2026-05-07 14:35 | -12.98075 | 176.02837 | 30883 ft | 522 kts | 45° |
| 2026-05-07 14:35 | -12.92893 | 176.07976 | 30882 ft | 522 kts | 45° |
| 2026-05-07 14:36 | -12.87672 | 176.13150 | 30877 ft | 522 kts | 45° |
| 2026-05-07 14:36 | -12.82446 | 176.18326 | 30880 ft | 521 kts | 45° |
| 2026-05-07 14:37 | -12.77222 | 176.23497 | 30875 ft | 522 kts | 45° |
| 2026-05-07 14:37 | -12.69386 | 176.31247 | 30881 ft | 522 kts | 45° |
| 2026-05-07 14:38 | -12.64198 | 176.36375 | 30881 ft | 521 kts | 45° |
| 2026-05-07 14:38 | -12.58971 | 176.41538 | 30877 ft | 521 kts | 45° |
| 2026-05-07 14:39 | -12.53756 | 176.46686 | 30873 ft | 521 kts | 45° |
| 2026-05-07 14:39 | -12.48533 | 176.51839 | 30874 ft | 521 kts | 45° |
| 2026-05-07 14:40 | -12.43311 | 176.56988 | 30877 ft | 521 kts | 45° |
| 2026-05-07 14:40 | -12.38119 | 176.62105 | 30877 ft | 521 kts | 45° |
| 2026-05-07 14:41 | -12.32902 | 176.67242 | 30876 ft | 521 kts | 45° |
| 2026-05-07 14:41 | -12.27677 | 176.72385 | 30877 ft | 520 kts | 45° |
| 2026-05-07 14:42 | -12.22456 | 176.77521 | 30877 ft | 520 kts | 45° |
| 2026-05-07 14:42 | -12.17232 | 176.82656 | 30876 ft | 520 kts | 45° |
| 2026-05-07 14:43 | -12.12045 | 176.87753 | 30877 ft | 520 kts | 45° |
| 2026-05-07 14:43 | -12.06827 | 176.92878 | 30876 ft | 520 kts | 45° |
| 2026-05-07 14:44 | -12.01596 | 176.98012 | 30872 ft | 520 kts | 45° |
| 2026-05-07 14:44 | -11.96368 | 177.03139 | 30874 ft | 520 kts | 45° |
| 2026-05-07 14:45 | -11.91170 | 177.08235 | 30873 ft | 520 kts | 45° |
| 2026-05-07 14:45 | -11.85940 | 177.13359 | 30874 ft | 520 kts | 45° |
| 2026-05-07 14:46 | -11.80712 | 177.18479 | 30874 ft | 520 kts | 45° |
| 2026-05-07 14:46 | -11.75478 | 177.23602 | 30874 ft | 520 kts | 45° |
| 2026-05-07 14:47 | -11.70283 | 177.28683 | 30874 ft | 520 kts | 45° |
| 2026-05-07 14:47 | -11.65024 | 177.33824 | 30875 ft | 520 kts | 45° |
| 2026-05-07 14:48 | -11.59832 | 177.38897 | 30874 ft | 520 kts | 45° |
| 2026-05-07 14:48 | -11.54603 | 177.44003 | 30871 ft | 520 kts | 45° |
| 2026-05-07 14:49 | -11.49377 | 177.49105 | 30870 ft | 520 kts | 45° |
| 2026-05-07 14:49 | -11.44154 | 177.54199 | 30872 ft | 520 kts | 45° |
| 2026-05-07 14:50 | -11.38918 | 177.59305 | 30874 ft | 520 kts | 45° |
| 2026-05-07 14:50 | -11.33690 | 177.64399 | 30874 ft | 520 kts | 45° |
| 2026-05-07 14:51 | -11.28465 | 177.69488 | 30874 ft | 519 kts | 45° |
| 2026-05-07 14:51 | -11.23266 | 177.74549 | 30872 ft | 519 kts | 45° |
| 2026-05-07 14:52 | -11.18041 | 177.79632 | 30874 ft | 519 kts | 45° |
| 2026-05-07 14:52 | -11.12809 | 177.84719 | 30874 ft | 519 kts | 45° |
| 2026-05-07 14:53 | -11.07588 | 177.89794 | 30874 ft | 519 kts | 45° |
| 2026-05-07 14:53 | -11.02359 | 177.94873 | 30874 ft | 519 kts | 45° |
| 2026-05-07 14:54 | -10.97164 | 177.99916 | 30871 ft | 519 kts | 45° |
| 2026-05-07 14:54 | -10.91934 | 178.04992 | 30872 ft | 519 kts | 45° |
| 2026-05-07 14:55 | -10.86696 | 178.10072 | 30874 ft | 519 kts | 45° |
| 2026-05-07 14:55 | -10.81461 | 178.15147 | 30871 ft | 520 kts | 45° |
| 2026-05-07 14:56 | -10.76250 | 178.20196 | 30872 ft | 520 kts | 45° |
| 2026-05-07 14:56 | -10.71013 | 178.25268 | 30869 ft | 520 kts | 45° |
| 2026-05-07 14:57 | -10.65770 | 178.30342 | 30869 ft | 520 kts | 45° |
| 2026-05-07 14:57 | -10.60521 | 178.35420 | 30871 ft | 520 kts | 45° |
| 2026-05-07 14:58 | -10.55279 | 178.40489 | 30866 ft | 520 kts | 45° |
| 2026-05-07 14:58 | -10.50073 | 178.45521 | 30871 ft | 519 kts | 45° |
| 2026-05-07 14:59 | -10.44834 | 178.50582 | 30871 ft | 519 kts | 45° |
| 2026-05-07 14:59 | -10.39596 | 178.55640 | 30868 ft | 518 kts | 45° |
| 2026-05-07 15:00 | -10.34371 | 178.60683 | 30870 ft | 518 kts | 45° |
| 2026-05-07 15:00 | -10.29175 | 178.65695 | 30875 ft | 518 kts | 45° |
| 2026-05-07 15:01 | -10.23948 | 178.70735 | 30869 ft | 518 kts | 45° |
| 2026-05-07 15:01 | -10.18712 | 178.75781 | 30865 ft | 518 kts | 45° |
| 2026-05-07 15:02 | -10.13484 | 178.80817 | 30867 ft | 518 kts | 45° |
| 2026-05-07 15:02 | -10.08255 | 178.85852 | 30869 ft | 518 kts | 45° |
| 2026-05-07 15:03 | -10.03053 | 178.90861 | 30866 ft | 518 kts | 45° |
| 2026-05-07 15:03 | -9.97705 | 178.95784 | 30874 ft | 522 kts | 41° |
| 2026-05-07 15:04 | -9.94878 | 178.98127 | 30985 ft | 527 kts | 40° |
| 2026-05-07 15:04 | -9.92017 | 179.00466 | 31244 ft | 528 kts | 40° |
| 2026-05-07 15:04 | -9.89156 | 179.02796 | 31658 ft | 526 kts | 40° |
| 2026-05-07 15:04 | -9.86311 | 179.05117 | 32113 ft | 523 kts | 40° |
| 2026-05-07 15:05 | -9.83486 | 179.07431 | 32541 ft | 520 kts | 40° |
| 2026-05-07 15:05 | -9.80677 | 179.09740 | 32889 ft | 520 kts | 40° |
| 2026-05-07 15:05 | -9.75046 | 179.14382 | 32866 ft | 521 kts | 40° |
| 2026-05-07 15:06 | -9.69438 | 179.19010 | 32859 ft | 518 kts | 40° |
| 2026-05-07 15:06 | -9.63854 | 179.23614 | 32866 ft | 517 kts | 40° |
| 2026-05-07 15:07 | -9.58277 | 179.28208 | 32864 ft | 516 kts | 40° |
| 2026-05-07 15:07 | -9.52703 | 179.32797 | 32863 ft | 516 kts | 40° |
| 2026-05-07 15:08 | -9.47122 | 179.37390 | 32864 ft | 517 kts | 40° |
| 2026-05-07 15:08 | -9.41579 | 179.41950 | 32865 ft | 517 kts | 40° |
| 2026-05-07 15:09 | -9.35957 | 179.46573 | 32863 ft | 517 kts | 40° |
| 2026-05-07 15:09 | -9.30364 | 179.51170 | 32863 ft | 518 kts | 40° |
| 2026-05-07 15:10 | -9.24789 | 179.55749 | 32863 ft | 518 kts | 40° |
| 2026-05-07 15:10 | -9.19191 | 179.60347 | 32861 ft | 518 kts | 40° |
| 2026-05-07 15:11 | -9.13592 | 179.64943 | 32865 ft | 518 kts | 40° |
| 2026-05-07 15:11 | -9.07989 | 179.69541 | 32852 ft | 518 kts | 39° |
| 2026-05-07 15:12 | -9.02427 | 179.74103 | 32857 ft | 517 kts | 39° |
| 2026-05-07 15:12 | -8.96841 | 179.78682 | 32858 ft | 517 kts | 39° |
| 2026-05-07 15:13 | -8.91255 | 179.83260 | 32857 ft | 517 kts | 39° |
| 2026-05-07 15:13 | -8.85667 | 179.87838 | 32863 ft | 517 kts | 39° |
| 2026-05-07 15:14 | -8.80079 | 179.92413 | 32863 ft | 517 kts | 39° |
| 2026-05-07 15:14 | -8.75434 | 179.96215 | 32858 ft | 517 kts | 39° |
| 2026-05-07 15:15 | -8.69845 | -179.99211 | 32860 ft | 517 kts | 38° |
| 2026-05-07 15:15 | -8.64245 | -179.94630 | 32858 ft | 517 kts | 38° |
| 2026-05-07 15:16 | -8.58643 | -179.90051 | 32859 ft | 517 kts | 38° |
| 2026-05-07 15:16 | -8.53042 | -179.85473 | 32858 ft | 518 kts | 38° |
| 2026-05-07 15:17 | -8.47436 | -179.80894 | 32858 ft | 518 kts | 38° |
| 2026-05-07 15:17 | -8.41869 | -179.76347 | 32858 ft | 518 kts | 38° |
| 2026-05-07 15:18 | -8.36260 | -179.71768 | 32857 ft | 518 kts | 38° |
| 2026-05-07 15:18 | -8.30657 | -179.67195 | 32857 ft | 518 kts | 38° |
| 2026-05-07 15:19 | -8.25041 | -179.62615 | 32858 ft | 518 kts | 38° |
| 2026-05-07 15:19 | -8.19429 | -179.58039 | 32857 ft | 518 kts | 38° |
| 2026-05-07 15:20 | -8.13820 | -179.53467 | 32858 ft | 518 kts | 38° |
| 2026-05-07 15:20 | -8.08216 | -179.48901 | 32857 ft | 518 kts | 38° |
| 2026-05-07 15:21 | -8.02642 | -179.44360 | 32857 ft | 518 kts | 38° |
| 2026-05-07 15:21 | -7.97037 | -179.39796 | 32858 ft | 518 kts | 38° |
| 2026-05-07 15:22 | -7.91424 | -179.35228 | 32859 ft | 517 kts | 38° |
| 2026-05-07 15:22 | -7.85818 | -179.30667 | 32854 ft | 517 kts | 38° |
| 2026-05-07 15:23 | -7.80216 | -179.26110 | 32855 ft | 517 kts | 38° |
| 2026-05-07 15:23 | -7.74650 | -179.21585 | 32855 ft | 517 kts | 38° |
| 2026-05-07 15:24 | -7.69048 | -179.17032 | 32852 ft | 517 kts | 38° |
| 2026-05-07 15:24 | -7.63443 | -179.12478 | 32851 ft | 517 kts | 38° |
| 2026-05-07 15:25 | -7.57846 | -179.07932 | 32849 ft | 516 kts | 38° |
| 2026-05-07 15:25 | -7.52282 | -179.03414 | 32848 ft | 516 kts | 38° |
| 2026-05-07 15:26 | -7.46692 | -178.98878 | 32848 ft | 515 kts | 38° |
| 2026-05-07 15:26 | -7.41103 | -178.94342 | 32848 ft | 515 kts | 38° |
| 2026-05-07 15:27 | -7.35523 | -178.89817 | 32850 ft | 515 kts | 38° |
| 2026-05-07 15:27 | -7.29943 | -178.85293 | 32849 ft | 515 kts | 38° |
| 2026-05-07 15:28 | -7.24365 | -178.80771 | 32849 ft | 515 kts | 38° |
| 2026-05-07 15:28 | -7.18781 | -178.76247 | 32849 ft | 514 kts | 38° |
| 2026-05-07 15:29 | -7.13237 | -178.71756 | 32847 ft | 514 kts | 38° |
| 2026-05-07 15:29 | -7.07661 | -178.67240 | 32846 ft | 514 kts | 38° |
| 2026-05-07 15:30 | -7.02082 | -178.62724 | 32849 ft | 514 kts | 38° |
| 2026-05-07 15:30 | -6.96497 | -178.58205 | 32847 ft | 514 kts | 38° |
| 2026-05-07 15:31 | -6.90912 | -178.53687 | 32844 ft | 515 kts | 38° |
| 2026-05-07 15:31 | -6.85361 | -178.49197 | 32845 ft | 515 kts | 38° |
| 2026-05-07 15:32 | -6.79775 | -178.44681 | 32846 ft | 514 kts | 37° |
| 2026-05-07 15:32 | -6.74198 | -178.40173 | 32841 ft | 514 kts | 37° |
| 2026-05-07 15:33 | -6.68617 | -178.35663 | 32843 ft | 513 kts | 37° |
| 2026-05-07 15:33 | -6.63049 | -178.31166 | 32843 ft | 513 kts | 37° |
| 2026-05-07 15:34 | -6.57526 | -178.26706 | 32843 ft | 512 kts | 37° |
| 2026-05-07 15:34 | -6.51965 | -178.22216 | 32844 ft | 512 kts | 37° |
| 2026-05-07 15:35 | -6.46402 | -178.17727 | 32846 ft | 512 kts | 37° |
| 2026-05-07 15:35 | -6.40850 | -178.13248 | 32844 ft | 512 kts | 38° |
| 2026-05-07 15:36 | -6.35295 | -178.08767 | 32846 ft | 511 kts | 37° |
| 2026-05-07 15:36 | -6.29738 | -178.04286 | 32842 ft | 511 kts | 37° |
| 2026-05-07 15:37 | -6.24192 | -177.99815 | 32844 ft | 511 kts | 37° |
| 2026-05-07 15:37 | -6.18681 | -177.95374 | 32844 ft | 511 kts | 37° |
| 2026-05-07 15:38 | -6.13133 | -177.90904 | 32844 ft | 511 kts | 37° |
| 2026-05-07 15:38 | -6.07589 | -177.86439 | 32841 ft | 511 kts | 38° |
| 2026-05-07 15:39 | -6.02035 | -177.81967 | 32846 ft | 511 kts | 38° |
| 2026-05-07 15:39 | -5.96480 | -177.77495 | 32844 ft | 511 kts | 38° |
| 2026-05-07 15:40 | -5.90926 | -177.73025 | 32838 ft | 511 kts | 38° |
| 2026-05-07 15:40 | -5.85372 | -177.68556 | 32843 ft | 511 kts | 37° |
| 2026-05-07 15:41 | -5.79846 | -177.64111 | 32844 ft | 512 kts | 37° |
| 2026-05-07 15:41 | -5.74283 | -177.59638 | 32842 ft | 512 kts | 37° |
| 2026-05-07 15:42 | -5.68718 | -177.55163 | 32842 ft | 512 kts | 37° |
| 2026-05-07 15:42 | -5.63187 | -177.50718 | 32845 ft | 512 kts | 37° |
| 2026-05-07 15:43 | -5.57629 | -177.46252 | 32841 ft | 512 kts | 37° |
| 2026-05-07 15:43 | -5.52081 | -177.41795 | 32841 ft | 512 kts | 37° |
| 2026-05-07 15:44 | -5.46509 | -177.37319 | 32841 ft | 512 kts | 37° |
| 2026-05-07 15:44 | -5.40975 | -177.32875 | 32841 ft | 511 kts | 37° |
| 2026-05-07 15:45 | -5.35421 | -177.28416 | 32841 ft | 511 kts | 37° |
| 2026-05-07 15:45 | -5.29864 | -177.23956 | 32842 ft | 511 kts | 37° |
| 2026-05-07 15:46 | -5.21552 | -177.17287 | 32840 ft | 509 kts | 37° |
| 2026-05-07 15:47 | -5.16011 | -177.12841 | 32840 ft | 509 kts | 37° |
| 2026-05-07 15:47 | -5.10517 | -177.08435 | 32841 ft | 508 kts | 37° |
| 2026-05-07 15:48 | -5.04998 | -177.04009 | 32842 ft | 508 kts | 37° |
| 2026-05-07 15:48 | -4.99509 | -176.99544 | 32840 ft | 508 kts | 40° |
| 2026-05-07 15:49 | -4.94445 | -176.94529 | 33087 ft | 514 kts | 44° |
| 2026-05-07 15:49 | -4.91955 | -176.91982 | 33649 ft | 507 kts | 44° |
| 2026-05-07 15:49 | -4.89494 | -176.89466 | 34154 ft | 501 kts | 44° |
| 2026-05-07 15:49 | -4.87053 | -176.86980 | 34614 ft | 497 kts | 43° |
| 2026-05-07 15:50 | -4.84621 | -176.84516 | 34857 ft | 497 kts | 43° |
| 2026-05-07 15:50 | -4.79764 | -176.79619 | 34836 ft | 497 kts | 43° |
| 2026-05-07 15:51 | -4.74901 | -176.74728 | 34839 ft | 494 kts | 43° |
| 2026-05-07 15:51 | -4.70058 | -176.69856 | 34840 ft | 492 kts | 43° |
| 2026-05-07 15:52 | -4.65214 | -176.64984 | 34843 ft | 492 kts | 43° |
| 2026-05-07 15:52 | -4.60385 | -176.60126 | 34842 ft | 492 kts | 43° |
| 2026-05-07 15:53 | -4.55547 | -176.55260 | 34844 ft | 493 kts | 43° |
| 2026-05-07 15:53 | -4.50738 | -176.50424 | 34844 ft | 493 kts | 43° |
| 2026-05-07 15:54 | -4.45886 | -176.45546 | 34839 ft | 493 kts | 43° |
| 2026-05-07 15:54 | -4.41040 | -176.40674 | 34843 ft | 493 kts | 43° |
| 2026-05-07 15:55 | -4.36182 | -176.35793 | 34841 ft | 494 kts | 43° |
| 2026-05-07 15:55 | -4.31330 | -176.30917 | 34841 ft | 494 kts | 43° |
| 2026-05-07 15:56 | -4.26477 | -176.26042 | 34840 ft | 494 kts | 43° |
| 2026-05-07 15:56 | -4.21626 | -176.21169 | 34841 ft | 494 kts | 43° |
| 2026-05-07 15:57 | -4.16805 | -176.16328 | 34833 ft | 494 kts | 43° |
| 2026-05-07 15:57 | -4.11946 | -176.11450 | 34837 ft | 494 kts | 43° |
| 2026-05-07 15:58 | -4.07092 | -176.06576 | 34841 ft | 494 kts | 43° |
| 2026-05-07 15:58 | -4.02260 | -176.01727 | 34842 ft | 494 kts | 43° |
| 2026-05-07 15:59 | -3.97403 | -175.96853 | 34841 ft | 494 kts | 43° |
| 2026-05-07 15:59 | -3.92536 | -175.91970 | 34842 ft | 494 kts | 43° |
| 2026-05-07 16:00 | -3.87673 | -175.87092 | 34841 ft | 494 kts | 43° |
| 2026-05-07 16:00 | -3.82849 | -175.82254 | 34844 ft | 494 kts | 43° |
| 2026-05-07 16:01 | -3.77988 | -175.77379 | 34842 ft | 494 kts | 43° |
| 2026-05-07 16:01 | -3.73122 | -175.72499 | 34844 ft | 494 kts | 43° |
| 2026-05-07 16:02 | -3.68295 | -175.67661 | 34844 ft | 494 kts | 43° |
| 2026-05-07 16:02 | -3.63444 | -175.62799 | 34844 ft | 493 kts | 43° |
| 2026-05-07 16:03 | -3.58589 | -175.57934 | 34843 ft | 493 kts | 43° |
| 2026-05-07 16:03 | -3.54556 | -175.53892 | 34844 ft | 493 kts | 43° |
| 2026-05-07 16:04 | -3.49698 | -175.49025 | 34844 ft | 493 kts | 43° |
| 2026-05-07 16:04 | -3.44849 | -175.44168 | 34844 ft | 493 kts | 43° |
| 2026-05-07 16:05 | -3.39997 | -175.39308 | 34839 ft | 493 kts | 43° |
| 2026-05-07 16:05 | -3.35178 | -175.34483 | 34842 ft | 493 kts | 43° |
| 2026-05-07 16:06 | -3.30317 | -175.29615 | 34845 ft | 493 kts | 43° |
| 2026-05-07 16:06 | -3.25464 | -175.24757 | 34842 ft | 494 kts | 43° |
| 2026-05-07 16:07 | -3.20607 | -175.19895 | 34841 ft | 494 kts | 43° |
| 2026-05-07 16:07 | -3.15750 | -175.15034 | 34839 ft | 494 kts | 43° |
| 2026-05-07 16:08 | -3.10887 | -175.10168 | 34841 ft | 494 kts | 43° |
| 2026-05-07 16:08 | -3.06046 | -175.05325 | 34842 ft | 494 kts | 43° |
| 2026-05-07 16:09 | -3.01189 | -175.00465 | 34848 ft | 493 kts | 43° |
| 2026-05-07 16:09 | -2.96345 | -174.95620 | 34839 ft | 492 kts | 43° |
| 2026-05-07 16:10 | -2.91515 | -174.90789 | 34839 ft | 490 kts | 43° |
| 2026-05-07 16:10 | -2.86692 | -174.85967 | 34843 ft | 488 kts | 43° |
| 2026-05-07 16:11 | -2.81922 | -174.81197 | 34844 ft | 487 kts | 43° |
| 2026-05-07 16:11 | -2.77118 | -174.76394 | 34844 ft | 487 kts | 43° |
| 2026-05-07 16:12 | -2.72318 | -174.71596 | 34844 ft | 487 kts | 43° |
| 2026-05-07 16:12 | -2.67524 | -174.66805 | 34844 ft | 488 kts | 43° |
| 2026-05-07 16:13 | -2.62748 | -174.62032 | 34851 ft | 488 kts | 44° |
| 2026-05-07 16:13 | -2.57949 | -174.57237 | 34845 ft | 487 kts | 44° |
| 2026-05-07 16:14 | -2.53152 | -174.52443 | 34846 ft | 487 kts | 44° |
| 2026-05-07 16:14 | -2.48363 | -174.47659 | 34846 ft | 486 kts | 44° |
| 2026-05-07 16:15 | -2.43579 | -174.42879 | 34846 ft | 486 kts | 44° |
| 2026-05-07 16:15 | -2.38799 | -174.38105 | 34843 ft | 485 kts | 44° |
| 2026-05-07 16:16 | -2.34025 | -174.33337 | 34846 ft | 485 kts | 44° |
| 2026-05-07 16:16 | -2.29251 | -174.28569 | 34844 ft | 485 kts | 44° |
| 2026-05-07 16:17 | -2.24496 | -174.23822 | 34849 ft | 486 kts | 44° |
| 2026-05-07 16:17 | -2.19709 | -174.19043 | 34851 ft | 486 kts | 44° |
| 2026-05-07 16:18 | -2.14910 | -174.14252 | 34852 ft | 487 kts | 43° |
| 2026-05-07 16:18 | -2.10105 | -174.09454 | 34850 ft | 488 kts | 43° |
| 2026-05-07 16:19 | -2.05294 | -174.04652 | 34849 ft | 488 kts | 44° |
| 2026-05-07 16:19 | -2.00514 | -173.99882 | 34850 ft | 489 kts | 44° |
| 2026-05-07 16:20 | -1.95696 | -173.95074 | 34848 ft | 489 kts | 44° |
| 2026-05-07 16:20 | -1.90881 | -173.90268 | 34846 ft | 489 kts | 44° |
| 2026-05-07 16:21 | -1.86062 | -173.85460 | 34851 ft | 488 kts | 44° |
| 2026-05-07 16:21 | -1.81256 | -173.80665 | 34846 ft | 487 kts | 44° |
| 2026-05-07 16:22 | -1.76492 | -173.75912 | 34847 ft | 486 kts | 44° |
| 2026-05-07 16:22 | -1.71715 | -173.71146 | 34848 ft | 484 kts | 44° |
| 2026-05-07 16:23 | -1.66944 | -173.66388 | 34849 ft | 483 kts | 44° |
| 2026-05-07 16:23 | -1.62180 | -173.61636 | 34851 ft | 483 kts | 44° |
| 2026-05-07 16:24 | -1.57441 | -173.56909 | 34851 ft | 483 kts | 44° |
| 2026-05-07 16:24 | -1.52668 | -173.52149 | 34846 ft | 484 kts | 44° |
| 2026-05-07 16:25 | -1.47889 | -173.47384 | 34853 ft | 485 kts | 44° |
| 2026-05-07 16:25 | -1.43136 | -173.42645 | 34850 ft | 486 kts | 44° |
| 2026-05-07 16:26 | -1.38340 | -173.37863 | 34849 ft | 487 kts | 44° |
| 2026-05-07 16:26 | -1.33532 | -173.33069 | 34850 ft | 487 kts | 44° |
| 2026-05-07 16:27 | -1.28731 | -173.28282 | 34849 ft | 488 kts | 44° |
| 2026-05-07 16:27 | -1.23953 | -173.23519 | 34849 ft | 488 kts | 44° |
| 2026-05-07 16:28 | -1.19149 | -173.18729 | 34850 ft | 488 kts | 44° |
| 2026-05-07 16:28 | -1.14340 | -173.13936 | 34850 ft | 488 kts | 44° |
| 2026-05-07 16:29 | -1.09534 | -173.09145 | 34847 ft | 488 kts | 44° |
| 2026-05-07 16:29 | -1.04750 | -173.04377 | 34851 ft | 488 kts | 44° |
| 2026-05-07 16:30 | -0.99934 | -172.99577 | 34851 ft | 489 kts | 44° |
| 2026-05-07 16:30 | -0.95118 | -172.94777 | 34852 ft | 489 kts | 44° |
| 2026-05-07 16:31 | -0.90303 | -172.89979 | 34851 ft | 489 kts | 44° |
| 2026-05-07 16:31 | -0.85483 | -172.85175 | 34851 ft | 489 kts | 44° |
| 2026-05-07 16:32 | -0.80662 | -172.80371 | 34852 ft | 489 kts | 44° |
| 2026-05-07 16:32 | -0.75836 | -172.75562 | 34859 ft | 489 kts | 44° |
| 2026-05-07 16:33 | -0.71051 | -172.70794 | 34850 ft | 488 kts | 44° |
| 2026-05-07 16:33 | -0.66246 | -172.66006 | 34852 ft | 488 kts | 44° |
| 2026-05-07 16:34 | -0.61444 | -172.61221 | 34851 ft | 487 kts | 44° |
| 2026-05-07 16:34 | -0.56652 | -172.56447 | 34852 ft | 486 kts | 44° |
| 2026-05-07 16:35 | -0.51863 | -172.51675 | 34851 ft | 486 kts | 44° |
| 2026-05-07 16:35 | -0.47072 | -172.46902 | 34852 ft | 486 kts | 44° |
| 2026-05-07 16:36 | -0.42315 | -172.42162 | 34853 ft | 486 kts | 44° |
| 2026-05-07 16:36 | -0.37525 | -172.37390 | 34852 ft | 486 kts | 44° |
| 2026-05-07 16:37 | -0.32726 | -172.32609 | 34852 ft | 486 kts | 44° |
| 2026-05-07 16:37 | -0.27931 | -172.27832 | 34853 ft | 487 kts | 44° |
| 2026-05-07 16:38 | -0.23128 | -172.23047 | 34851 ft | 487 kts | 44° |
| 2026-05-07 16:38 | -0.18357 | -172.18293 | 34853 ft | 487 kts | 44° |
| 2026-05-07 16:39 | -0.13547 | -172.13501 | 34854 ft | 488 kts | 44° |
| 2026-05-07 16:39 | -0.08731 | -172.08702 | 34854 ft | 488 kts | 44° |
| 2026-05-07 16:40 | -0.03945 | -172.03932 | 34857 ft | 488 kts | 44° |
| 2026-05-07 16:40 | 0.00936 | -171.99204 | 34855 ft | 487 kts | 39° |
| 2026-05-07 16:41 | 0.06225 | -171.95063 | 34862 ft | 486 kts | 36° |
| 2026-05-07 16:41 | 0.11594 | -171.90956 | 34857 ft | 486 kts | 36° |
| 2026-05-07 16:42 | 0.16949 | -171.86828 | 34858 ft | 485 kts | 37° |
| 2026-05-07 16:42 | 0.22295 | -171.82678 | 34857 ft | 485 kts | 37° |
| 2026-05-07 16:43 | 0.27622 | -171.78534 | 34857 ft | 485 kts | 37° |
| 2026-05-07 16:43 | 0.32944 | -171.74393 | 34858 ft | 485 kts | 37° |
| 2026-05-07 16:44 | 0.38269 | -171.70251 | 34857 ft | 485 kts | 37° |
| 2026-05-07 16:44 | 0.43561 | -171.66136 | 34858 ft | 485 kts | 37° |
| 2026-05-07 16:45 | 0.48883 | -171.61998 | 34861 ft | 485 kts | 37° |
| 2026-05-07 16:45 | 0.54210 | -171.57856 | 34860 ft | 485 kts | 37° |
| 2026-05-07 16:46 | 0.59534 | -171.53716 | 34860 ft | 485 kts | 37° |
| 2026-05-07 16:46 | 0.64855 | -171.49578 | 34862 ft | 485 kts | 37° |
| 2026-05-07 16:47 | 0.70191 | -171.45429 | 34864 ft | 485 kts | 37° |
| 2026-05-07 16:47 | 0.75514 | -171.41289 | 34863 ft | 485 kts | 37° |
| 2026-05-07 16:48 | 0.80818 | -171.37164 | 34864 ft | 485 kts | 37° |
| 2026-05-07 16:48 | 0.86153 | -171.33015 | 34863 ft | 485 kts | 37° |
| 2026-05-07 16:49 | 0.91476 | -171.28874 | 34862 ft | 485 kts | 37° |
| 2026-05-07 16:49 | 0.96805 | -171.24730 | 34863 ft | 484 kts | 37° |
| 2026-05-07 16:50 | 1.02083 | -171.20624 | 34861 ft | 483 kts | 37° |
| 2026-05-07 16:50 | 1.07391 | -171.16494 | 34863 ft | 483 kts | 37° |
| 2026-05-07 16:51 | 1.12694 | -171.12370 | 34864 ft | 482 kts | 37° |
| 2026-05-07 16:51 | 1.17987 | -171.08253 | 34866 ft | 482 kts | 37° |
| 2026-05-07 16:52 | 1.23282 | -171.04133 | 34865 ft | 482 kts | 37° |
| 2026-05-07 16:52 | 1.28558 | -171.00028 | 34862 ft | 483 kts | 37° |
| 2026-05-07 16:53 | 1.33002 | -170.96571 | 34860 ft | 483 kts | 38° |
| 2026-05-07 16:53 | 1.38273 | -170.92470 | 34861 ft | 483 kts | 38° |
| 2026-05-07 16:54 | 1.43580 | -170.88340 | 34859 ft | 483 kts | 38° |
| 2026-05-07 16:54 | 1.48883 | -170.84213 | 34865 ft | 484 kts | 38° |
| 2026-05-07 16:55 | 1.54195 | -170.80079 | 34866 ft | 484 kts | 38° |
| 2026-05-07 16:55 | 1.59516 | -170.75938 | 34864 ft | 484 kts | 38° |
| 2026-05-07 16:56 | 1.64828 | -170.71803 | 34861 ft | 484 kts | 38° |
| 2026-05-07 16:56 | 1.72795 | -170.65601 | 34864 ft | 483 kts | 38° |
| 2026-05-07 16:57 | 1.78070 | -170.61495 | 34864 ft | 483 kts | 38° |
| 2026-05-07 16:57 | 1.83372 | -170.57367 | 34863 ft | 483 kts | 38° |
| 2026-05-07 16:58 | 1.88676 | -170.53238 | 34863 ft | 483 kts | 38° |
| 2026-05-07 16:58 | 1.93977 | -170.49110 | 34863 ft | 483 kts | 38° |
| 2026-05-07 16:59 | 1.99273 | -170.44986 | 34863 ft | 482 kts | 38° |
| 2026-05-07 16:59 | 2.04568 | -170.40862 | 34863 ft | 482 kts | 38° |
| 2026-05-07 17:00 | 2.09860 | -170.36740 | 34868 ft | 482 kts | 38° |
| 2026-05-07 17:00 | 2.15148 | -170.32621 | 34867 ft | 482 kts | 38° |
| 2026-05-07 17:01 | 2.20434 | -170.28504 | 34865 ft | 482 kts | 38° |
| 2026-05-07 17:01 | 2.25725 | -170.24381 | 34867 ft | 482 kts | 38° |
| 2026-05-07 17:02 | 2.30983 | -170.20284 | 34863 ft | 482 kts | 38° |
| 2026-05-07 17:02 | 2.36270 | -170.16164 | 34863 ft | 482 kts | 38° |
| 2026-05-07 17:03 | 2.41575 | -170.12029 | 34867 ft | 482 kts | 38° |
| 2026-05-07 17:03 | 2.46874 | -170.07899 | 34866 ft | 483 kts | 38° |
| 2026-05-07 17:04 | 2.52172 | -170.03769 | 34866 ft | 483 kts | 38° |
| 2026-05-07 17:04 | 2.57479 | -169.99630 | 34869 ft | 483 kts | 38° |
| 2026-05-07 17:05 | 2.62751 | -169.95522 | 34871 ft | 483 kts | 38° |
| 2026-05-07 17:05 | 2.68354 | -169.91814 | 34872 ft | 483 kts | 32° |
| 2026-05-07 17:06 | 2.74112 | -169.88340 | 34870 ft | 482 kts | 32° |
| 2026-05-07 17:06 | 2.79851 | -169.84866 | 34870 ft | 482 kts | 32° |
| 2026-05-07 17:07 | 2.85582 | -169.81368 | 34871 ft | 481 kts | 32° |
| 2026-05-07 17:07 | 2.91253 | -169.77894 | 34870 ft | 481 kts | 32° |
| 2026-05-07 17:08 | 2.96960 | -169.74394 | 34869 ft | 481 kts | 32° |
| 2026-05-07 17:08 | 3.02670 | -169.70894 | 34871 ft | 481 kts | 32° |
| 2026-05-07 17:09 | 3.08383 | -169.67392 | 34878 ft | 481 kts | 32° |
| 2026-05-07 17:09 | 3.14057 | -169.63914 | 34875 ft | 481 kts | 32° |
| 2026-05-07 17:10 | 3.19760 | -169.60417 | 34874 ft | 480 kts | 32° |
| 2026-05-07 17:10 | 3.25470 | -169.56917 | 34877 ft | 480 kts | 32° |
| 2026-05-07 17:11 | 3.31166 | -169.53424 | 34872 ft | 480 kts | 32° |
| 2026-05-07 17:11 | 3.36866 | -169.49928 | 34874 ft | 480 kts | 32° |
| 2026-05-07 17:12 | 3.42565 | -169.46432 | 34874 ft | 480 kts | 32° |
| 2026-05-07 17:12 | 3.48263 | -169.42936 | 34877 ft | 480 kts | 32° |
| 2026-05-07 17:13 | 3.53921 | -169.39464 | 34877 ft | 479 kts | 32° |
| 2026-05-07 17:13 | 3.59611 | -169.35972 | 34877 ft | 479 kts | 32° |
| 2026-05-07 17:14 | 3.65304 | -169.32479 | 34884 ft | 479 kts | 32° |
| 2026-05-07 17:14 | 3.70999 | -169.28983 | 34888 ft | 480 kts | 32° |
| 2026-05-07 17:15 | 3.76661 | -169.25506 | 34876 ft | 480 kts | 32° |
| 2026-05-07 17:15 | 3.82358 | -169.22008 | 34881 ft | 480 kts | 32° |
| 2026-05-07 17:16 | 3.88049 | -169.18513 | 34885 ft | 480 kts | 32° |
| 2026-05-07 17:16 | 3.93753 | -169.15010 | 34882 ft | 481 kts | 32° |
| 2026-05-07 17:17 | 3.99453 | -169.11507 | 34883 ft | 481 kts | 32° |
| 2026-05-07 17:17 | 4.05167 | -169.07997 | 34886 ft | 481 kts | 32° |
| 2026-05-07 17:18 | 4.10874 | -169.04490 | 34884 ft | 481 kts | 32° |
| 2026-05-07 17:18 | 4.16553 | -169.00999 | 34890 ft | 481 kts | 32° |
| 2026-05-07 17:19 | 4.22261 | -168.97490 | 34884 ft | 481 kts | 32° |
| 2026-05-07 17:19 | 4.27974 | -168.93977 | 34889 ft | 481 kts | 32° |
| 2026-05-07 17:20 | 4.33687 | -168.90464 | 34887 ft | 482 kts | 32° |
| 2026-05-07 17:20 | 4.39404 | -168.86948 | 34883 ft | 482 kts | 32° |
| 2026-05-07 17:21 | 4.45124 | -168.83429 | 34887 ft | 481 kts | 32° |
| 2026-05-07 17:21 | 4.50798 | -168.79938 | 34886 ft | 482 kts | 32° |
| 2026-05-07 17:22 | 4.56525 | -168.76413 | 34888 ft | 482 kts | 32° |
| 2026-05-07 17:22 | 4.62245 | -168.72892 | 34888 ft | 482 kts | 32° |
| 2026-05-07 17:23 | 4.67929 | -168.69393 | 34891 ft | 482 kts | 32° |
| 2026-05-07 17:23 | 4.73651 | -168.65869 | 34884 ft | 482 kts | 32° |
| 2026-05-07 17:24 | 4.79375 | -168.62344 | 34886 ft | 482 kts | 32° |
| 2026-05-07 17:24 | 4.85094 | -168.58821 | 34895 ft | 482 kts | 32° |
| 2026-05-07 17:25 | 4.90807 | -168.55301 | 34886 ft | 482 kts | 32° |
| 2026-05-07 17:25 | 4.96525 | -168.51777 | 34887 ft | 482 kts | 32° |
| 2026-05-07 17:26 | 5.02241 | -168.48254 | 34887 ft | 482 kts | 32° |
| 2026-05-07 17:26 | 5.07925 | -168.44750 | 34886 ft | 482 kts | 32° |
| 2026-05-07 17:27 | 5.13639 | -168.41226 | 34887 ft | 482 kts | 32° |
| 2026-05-07 17:27 | 5.19360 | -168.37698 | 34887 ft | 482 kts | 32° |
| 2026-05-07 17:28 | 5.25078 | -168.34170 | 34887 ft | 482 kts | 32° |
| 2026-05-07 17:28 | 5.30753 | -168.30669 | 34891 ft | 482 kts | 32° |
| 2026-05-07 17:29 | 5.36465 | -168.27143 | 34887 ft | 482 kts | 32° |
| 2026-05-07 17:29 | 5.42180 | -168.23615 | 34889 ft | 482 kts | 32° |
| 2026-05-07 17:30 | 5.47898 | -168.20084 | 34894 ft | 482 kts | 32° |
| 2026-05-07 17:30 | 5.53615 | -168.16554 | 34891 ft | 482 kts | 32° |
| 2026-05-07 17:31 | 5.59336 | -168.13019 | 34889 ft | 482 kts | 32° |
| 2026-05-07 17:31 | 5.65029 | -168.09502 | 34894 ft | 483 kts | 32° |
| 2026-05-07 17:32 | 5.70757 | -168.05962 | 34893 ft | 483 kts | 32° |
| 2026-05-07 17:32 | 5.75520 | -168.03017 | 34890 ft | 483 kts | 32° |
| 2026-05-07 17:33 | 5.82212 | -167.98880 | 34887 ft | 483 kts | 32° |
| 2026-05-07 17:33 | 5.87941 | -167.95336 | 34889 ft | 483 kts | 32° |
| 2026-05-07 17:34 | 5.93662 | -167.91798 | 34892 ft | 483 kts | 32° |
| 2026-05-07 17:34 | 5.99361 | -167.88271 | 34889 ft | 484 kts | 32° |
| 2026-05-07 17:35 | 6.05093 | -167.84723 | 34906 ft | 484 kts | 32° |
| 2026-05-07 17:35 | 6.10827 | -167.81173 | 34895 ft | 484 kts | 32° |
| 2026-05-07 17:36 | 6.16572 | -167.77616 | 34892 ft | 485 kts | 32° |
| 2026-05-07 17:36 | 6.22320 | -167.74055 | 34895 ft | 485 kts | 32° |
| 2026-05-07 17:37 | 6.28066 | -167.70495 | 34892 ft | 485 kts | 32° |
| 2026-05-07 17:37 | 6.33766 | -167.66962 | 34894 ft | 485 kts | 32° |
| 2026-05-07 17:38 | 6.39529 | -167.63390 | 34910 ft | 485 kts | 32° |
| 2026-05-07 17:38 | 6.45282 | -167.59823 | 34894 ft | 485 kts | 32° |
| 2026-05-07 17:39 | 6.50998 | -167.56278 | 34894 ft | 485 kts | 32° |
| 2026-05-07 17:39 | 6.56747 | -167.52712 | 34894 ft | 485 kts | 32° |
| 2026-05-07 17:40 | 6.62485 | -167.49150 | 34913 ft | 484 kts | 32° |
| 2026-05-07 17:40 | 6.68223 | -167.45588 | 34898 ft | 484 kts | 32° |
| 2026-05-07 17:41 | 6.73918 | -167.42053 | 34903 ft | 484 kts | 32° |
| 2026-05-07 17:41 | 6.79665 | -167.38483 | 34906 ft | 485 kts | 32° |
| 2026-05-07 17:42 | 6.84439 | -167.35517 | 34907 ft | 485 kts | 32° |
| 2026-05-07 17:42 | 6.90194 | -167.31941 | 34908 ft | 486 kts | 32° |
| 2026-05-07 17:43 | 6.95957 | -167.28359 | 34893 ft | 487 kts | 32° |
| 2026-05-07 17:43 | 7.01729 | -167.24770 | 34913 ft | 487 kts | 32° |
| 2026-05-07 17:44 | 7.07460 | -167.21205 | 34913 ft | 487 kts | 31° |
| 2026-05-07 17:44 | 7.13221 | -167.17621 | 34902 ft | 486 kts | 31° |
| 2026-05-07 17:45 | 7.18976 | -167.14040 | 34899 ft | 486 kts | 32° |
| 2026-05-07 17:45 | 7.24725 | -167.10461 | 34916 ft | 485 kts | 32° |
| 2026-05-07 17:46 | 7.30471 | -167.06883 | 34913 ft | 485 kts | 31° |
| 2026-05-07 17:46 | 7.36203 | -167.03312 | 34907 ft | 485 kts | 31° |
| 2026-05-07 17:47 | 7.41902 | -166.99762 | 34910 ft | 484 kts | 32° |
| 2026-05-07 17:47 | 7.47649 | -166.96180 | 34917 ft | 485 kts | 32° |
| 2026-05-07 17:48 | 7.53385 | -166.92604 | 34904 ft | 485 kts | 32° |
| 2026-05-07 17:48 | 7.59123 | -166.89025 | 34918 ft | 485 kts | 32° |
| 2026-05-07 17:49 | 7.64864 | -166.85443 | 34910 ft | 485 kts | 32° |
| 2026-05-07 17:49 | 7.70609 | -166.81858 | 34910 ft | 485 kts | 32° |
| 2026-05-07 17:50 | 7.76321 | -166.78292 | 34919 ft | 485 kts | 32° |
| 2026-05-07 17:50 | 7.82057 | -166.74710 | 34906 ft | 485 kts | 32° |
| 2026-05-07 17:51 | 7.87804 | -166.71120 | 34912 ft | 485 kts | 32° |
| 2026-05-07 17:51 | 7.93548 | -166.67530 | 34922 ft | 485 kts | 32° |
| 2026-05-07 17:52 | 7.99290 | -166.63941 | 34923 ft | 485 kts | 32° |
| 2026-05-07 17:52 | 8.04999 | -166.60371 | 34922 ft | 485 kts | 32° |
| 2026-05-07 17:53 | 8.10740 | -166.56780 | 34923 ft | 485 kts | 32° |
| 2026-05-07 17:53 | 8.16478 | -166.53190 | 34928 ft | 485 kts | 32° |
| 2026-05-07 17:54 | 8.22216 | -166.49598 | 34906 ft | 485 kts | 31° |
| 2026-05-07 17:54 | 8.27957 | -166.46004 | 34922 ft | 486 kts | 32° |
| 2026-05-07 17:55 | 8.33712 | -166.42399 | 34921 ft | 486 kts | 32° |
| 2026-05-07 17:55 | 8.39428 | -166.38817 | 34921 ft | 487 kts | 32° |
| 2026-05-07 17:56 | 8.45193 | -166.35203 | 34928 ft | 487 kts | 32° |
| 2026-05-07 17:56 | 8.50956 | -166.31590 | 34914 ft | 487 kts | 32° |
| 2026-05-07 17:57 | 8.55744 | -166.28587 | 34930 ft | 487 kts | 32° |
| 2026-05-07 17:57 | 8.62435 | -166.24388 | 34931 ft | 487 kts | 32° |
| 2026-05-07 17:58 | 8.68200 | -166.20769 | 34931 ft | 487 kts | 32° |
| 2026-05-07 17:58 | 8.73963 | -166.17150 | 34921 ft | 487 kts | 32° |
| 2026-05-07 17:59 | 8.79732 | -166.13527 | 34933 ft | 487 kts | 32° |
| 2026-05-07 17:59 | 8.85492 | -166.09907 | 34917 ft | 487 kts | 32° |
| 2026-05-07 18:00 | 8.91253 | -166.06285 | 34939 ft | 487 kts | 32° |
| 2026-05-07 18:00 | 8.97012 | -166.02664 | 34938 ft | 487 kts | 32° |
| 2026-05-07 18:01 | 9.02742 | -165.99058 | 34935 ft | 488 kts | 32° |
| 2026-05-07 18:01 | 9.08508 | -165.95430 | 34935 ft | 488 kts | 32° |
| 2026-05-07 18:02 | 9.17156 | -165.89984 | 34939 ft | 488 kts | 32° |
| 2026-05-07 18:03 | 9.22928 | -165.86348 | 34940 ft | 488 kts | 32° |
| 2026-05-07 18:03 | 9.28697 | -165.82712 | 34941 ft | 489 kts | 32° |
| 2026-05-07 18:04 | 9.34489 | -165.79061 | 34941 ft | 489 kts | 32° |
| 2026-05-07 18:04 | 9.40242 | -165.75432 | 34941 ft | 490 kts | 32° |
| 2026-05-07 18:05 | 9.46021 | -165.71786 | 34942 ft | 490 kts | 32° |
| 2026-05-07 18:05 | 9.51810 | -165.68132 | 34942 ft | 490 kts | 32° |
| 2026-05-07 18:06 | 9.57595 | -165.64478 | 34930 ft | 490 kts | 32° |
| 2026-05-07 18:06 | 9.63393 | -165.60816 | 34946 ft | 491 kts | 32° |
| 2026-05-07 18:07 | 9.69166 | -165.57167 | 34947 ft | 491 kts | 32° |
| 2026-05-07 18:07 | 9.74967 | -165.53499 | 34947 ft | 491 kts | 32° |
| 2026-05-07 18:08 | 9.80771 | -165.49828 | 34933 ft | 492 kts | 31° |
| 2026-05-07 18:08 | 9.86583 | -165.46150 | 34951 ft | 492 kts | 32° |
| 2026-05-07 18:09 | 9.92390 | -165.42474 | 34948 ft | 492 kts | 31° |
| 2026-05-07 18:09 | 9.98164 | -165.38817 | 34951 ft | 491 kts | 31° |
| 2026-05-07 18:10 | 10.03970 | -165.35139 | 34951 ft | 491 kts | 31° |
| 2026-05-07 18:10 | 10.09771 | -165.31461 | 34952 ft | 491 kts | 31° |
| 2026-05-07 18:11 | 10.15565 | -165.27786 | 34951 ft | 491 kts | 31° |
| 2026-05-07 18:11 | 10.21361 | -165.24108 | 34950 ft | 491 kts | 31° |
| 2026-05-07 18:12 | 10.27121 | -165.20453 | 34947 ft | 492 kts | 31° |
| 2026-05-07 18:12 | 10.32972 | -165.16829 | 34957 ft | 493 kts | 30° |
| 2026-05-07 18:13 | 10.38878 | -165.13241 | 34956 ft | 494 kts | 30° |
| 2026-05-07 18:13 | 10.44785 | -165.09649 | 34959 ft | 495 kts | 30° |
| 2026-05-07 18:14 | 10.50662 | -165.06060 | 34957 ft | 496 kts | 30° |
| 2026-05-07 18:14 | 10.56588 | -165.02435 | 34960 ft | 496 kts | 30° |
| 2026-05-07 18:15 | 10.62507 | -164.98806 | 34965 ft | 497 kts | 29° |
| 2026-05-07 18:15 | 10.68432 | -164.95175 | 34962 ft | 498 kts | 30° |
| 2026-05-07 18:16 | 10.74387 | -164.91523 | 34964 ft | 499 kts | 30° |
| 2026-05-07 18:16 | 10.80343 | -164.87869 | 34962 ft | 500 kts | 30° |
| 2026-05-07 18:17 | 10.86267 | -164.84234 | 34961 ft | 500 kts | 30° |
| 2026-05-07 18:17 | 10.92231 | -164.80577 | 34963 ft | 499 kts | 29° |
| 2026-05-07 18:18 | 10.98180 | -164.76920 | 34955 ft | 499 kts | 29° |
| 2026-05-07 18:18 | 11.04123 | -164.73266 | 34952 ft | 498 kts | 29° |
| 2026-05-07 18:19 | 11.10058 | -164.69617 | 34968 ft | 498 kts | 29° |
| 2026-05-07 18:19 | 11.15997 | -164.65965 | 34957 ft | 498 kts | 29° |
| 2026-05-07 18:20 | 11.21933 | -164.62313 | 34968 ft | 498 kts | 30° |
| 2026-05-07 18:20 | 11.27834 | -164.58679 | 34970 ft | 498 kts | 29° |
| 2026-05-07 18:21 | 11.33769 | -164.55023 | 34955 ft | 498 kts | 29° |
| 2026-05-07 18:21 | 11.39709 | -164.51363 | 34971 ft | 499 kts | 29° |
| 2026-05-07 18:22 | 11.45652 | -164.47698 | 34973 ft | 499 kts | 30° |
| 2026-05-07 18:22 | 11.51592 | -164.44033 | 34974 ft | 499 kts | 29° |
| 2026-05-07 18:23 | 11.57537 | -164.40365 | 34963 ft | 499 kts | 29° |
| 2026-05-07 18:23 | 11.63441 | -164.36719 | 34964 ft | 499 kts | 29° |
| 2026-05-07 18:24 | 11.69387 | -164.33045 | 34978 ft | 500 kts | 29° |
| 2026-05-07 18:24 | 11.75346 | -164.29361 | 34981 ft | 501 kts | 29° |
| 2026-05-07 18:25 | 11.81308 | -164.25673 | 34966 ft | 501 kts | 29° |
| 2026-05-07 18:25 | 11.87279 | -164.21979 | 34978 ft | 502 kts | 29° |
| 2026-05-07 18:26 | 11.93211 | -164.18306 | 34985 ft | 502 kts | 29° |
| 2026-05-07 18:26 | 11.99185 | -164.14605 | 34977 ft | 502 kts | 29° |
| 2026-05-07 18:27 | 12.05165 | -164.10899 | 34969 ft | 502 kts | 29° |
| 2026-05-07 18:27 | 12.11131 | -164.07200 | 34974 ft | 501 kts | 29° |
| 2026-05-07 18:28 | 12.17069 | -164.03516 | 34988 ft | 501 kts | 29° |
| 2026-05-07 18:28 | 12.23031 | -163.99815 | 34987 ft | 501 kts | 29° |
| 2026-05-07 18:29 | 12.29004 | -163.96106 | 34987 ft | 501 kts | 29° |
| 2026-05-07 18:29 | 12.34965 | -163.92401 | 34980 ft | 501 kts | 28° |
| 2026-05-07 18:30 | 12.39913 | -163.89325 | 34982 ft | 501 kts | 29° |
| 2026-05-07 18:30 | 12.45871 | -163.85619 | 34992 ft | 500 kts | 29° |
| 2026-05-07 18:31 | 12.51821 | -163.81916 | 34999 ft | 500 kts | 29° |
| 2026-05-07 18:31 | 12.57772 | -163.78210 | 34994 ft | 500 kts | 29° |
| 2026-05-07 18:32 | 12.63672 | -163.74534 | 34995 ft | 500 kts | 27° |
| 2026-05-07 18:32 | 12.69623 | -163.70823 | 34993 ft | 501 kts | 27° |
| 2026-05-07 18:33 | 12.75604 | -163.67094 | 34998 ft | 502 kts | 27° |
| 2026-05-07 18:33 | 12.81538 | -163.63391 | 34997 ft | 503 kts | 27° |
| 2026-05-07 18:34 | 12.87528 | -163.59651 | 34999 ft | 503 kts | 27° |
| 2026-05-07 18:34 | 12.93508 | -163.55915 | 34997 ft | 503 kts | 27° |
| 2026-05-07 18:35 | 12.99491 | -163.52174 | 34998 ft | 504 kts | 26° |
| 2026-05-07 18:35 | 13.05456 | -163.48443 | 35007 ft | 505 kts | 26° |
| 2026-05-07 18:36 | 13.11456 | -163.44687 | 35009 ft | 505 kts | 26° |
| 2026-05-07 18:36 | 13.17454 | -163.40931 | 35004 ft | 505 kts | 26° |
| 2026-05-07 18:37 | 13.23464 | -163.37165 | 35012 ft | 506 kts | 26° |
| 2026-05-07 18:37 | 13.29474 | -163.33398 | 35014 ft | 505 kts | 26° |
| 2026-05-07 18:38 | 13.35476 | -163.29632 | 35013 ft | 505 kts | 26° |
| 2026-05-07 18:38 | 13.41436 | -163.25891 | 35010 ft | 504 kts | 26° |
| 2026-05-07 18:39 | 13.47428 | -163.22127 | 35012 ft | 504 kts | 26° |
| 2026-05-07 18:39 | 13.53407 | -163.18370 | 35018 ft | 503 kts | 26° |
| 2026-05-07 18:40 | 13.59379 | -163.14615 | 35016 ft | 503 kts | 26° |
| 2026-05-07 18:40 | 13.65341 | -163.10864 | 35025 ft | 502 kts | 26° |
| 2026-05-07 18:41 | 13.71310 | -163.07106 | 35025 ft | 503 kts | 26° |
| 2026-05-07 18:41 | 13.77282 | -163.03345 | 35023 ft | 503 kts | 26° |
| 2026-05-07 18:42 | 13.83215 | -162.99605 | 35026 ft | 503 kts | 26° |
| 2026-05-07 18:42 | 13.89179 | -162.95843 | 35027 ft | 503 kts | 26° |
| 2026-05-07 18:43 | 13.95156 | -162.92071 | 35027 ft | 503 kts | 26° |
| 2026-05-07 18:43 | 14.01127 | -162.88300 | 35029 ft | 503 kts | 26° |
| 2026-05-07 18:44 | 14.07108 | -162.84521 | 35027 ft | 503 kts | 26° |
| 2026-05-07 18:44 | 14.13044 | -162.80768 | 35028 ft | 503 kts | 26° |
| 2026-05-07 18:45 | 14.19013 | -162.76992 | 35035 ft | 503 kts | 26° |
| 2026-05-07 18:45 | 14.24982 | -162.73213 | 35034 ft | 503 kts | 26° |
| 2026-05-07 18:46 | 14.30951 | -162.69431 | 35044 ft | 503 kts | 26° |
| 2026-05-07 18:46 | 14.36925 | -162.65646 | 35036 ft | 504 kts | 26° |
| 2026-05-07 18:47 | 14.42908 | -162.61851 | 35038 ft | 503 kts | 26° |
| 2026-05-07 18:47 | 14.48879 | -162.58061 | 35038 ft | 503 kts | 26° |
| 2026-05-07 18:48 | 14.54845 | -162.54273 | 35044 ft | 503 kts | 26° |
| 2026-05-07 18:48 | 14.60814 | -162.50479 | 35043 ft | 503 kts | 26° |
| 2026-05-07 18:49 | 14.66740 | -162.46711 | 35047 ft | 503 kts | 26° |
| 2026-05-07 18:49 | 14.72708 | -162.42914 | 35042 ft | 503 kts | 26° |
| 2026-05-07 18:50 | 14.78671 | -162.39117 | 35044 ft | 503 kts | 26° |
| 2026-05-07 18:50 | 14.84640 | -162.35314 | 35046 ft | 503 kts | 26° |
| 2026-05-07 18:51 | 14.90607 | -162.31510 | 35044 ft | 503 kts | 26° |
| 2026-05-07 18:51 | 14.96569 | -162.27706 | 35055 ft | 504 kts | 26° |
| 2026-05-07 18:52 | 15.02498 | -162.23922 | 35049 ft | 504 kts | 26° |
| 2026-05-07 18:52 | 15.08462 | -162.20112 | 35052 ft | 504 kts | 26° |
| 2026-05-07 18:53 | 15.14429 | -162.16297 | 35052 ft | 504 kts | 26° |
| 2026-05-07 18:53 | 15.20405 | -162.12475 | 35054 ft | 504 kts | 26° |
| 2026-05-07 18:54 | 15.26373 | -162.08654 | 35069 ft | 504 kts | 26° |
| 2026-05-07 18:54 | 15.32341 | -162.04831 | 35059 ft | 504 kts | 26° |
| 2026-05-07 18:55 | 15.38273 | -162.01029 | 35056 ft | 504 kts | 26° |
| 2026-05-07 18:55 | 15.44253 | -161.97194 | 35058 ft | 504 kts | 26° |
| 2026-05-07 18:56 | 15.50216 | -161.93367 | 35057 ft | 503 kts | 26° |
| 2026-05-07 18:56 | 15.56168 | -161.89544 | 35059 ft | 503 kts | 26° |
| 2026-05-07 18:57 | 15.62097 | -161.85733 | 35071 ft | 504 kts | 25° |
| 2026-05-07 18:57 | 15.68056 | -161.81901 | 35063 ft | 504 kts | 25° |
| 2026-05-07 18:58 | 15.74018 | -161.78064 | 35073 ft | 504 kts | 25° |
| 2026-05-07 18:58 | 15.79978 | -161.74225 | 35067 ft | 504 kts | 25° |
| 2026-05-07 18:59 | 15.85935 | -161.70385 | 35069 ft | 504 kts | 25° |
| 2026-05-07 18:59 | 15.91898 | -161.66539 | 35084 ft | 504 kts | 25° |
| 2026-05-07 19:00 | 15.97823 | -161.62715 | 35075 ft | 504 kts | 25° |
| 2026-05-07 19:00 | 16.03778 | -161.58869 | 35075 ft | 503 kts | 25° |
| 2026-05-07 19:01 | 16.09717 | -161.55030 | 35078 ft | 503 kts | 25° |
| 2026-05-07 19:01 | 16.15656 | -161.51189 | 35072 ft | 503 kts | 25° |
| 2026-05-07 19:02 | 16.21591 | -161.47347 | 35090 ft | 503 kts | 25° |
| 2026-05-07 19:02 | 16.27528 | -161.43501 | 35081 ft | 502 kts | 25° |
| 2026-05-07 19:03 | 16.33461 | -161.39656 | 35073 ft | 502 kts | 25° |
| 2026-05-07 19:03 | 16.39346 | -161.35838 | 35075 ft | 501 kts | 25° |
| 2026-05-07 19:04 | 16.45266 | -161.31995 | 35076 ft | 501 kts | 25° |
| 2026-05-07 19:04 | 16.51183 | -161.28151 | 35077 ft | 501 kts | 25° |
| 2026-05-07 19:05 | 16.57101 | -161.24303 | 35085 ft | 501 kts | 25° |
| 2026-05-07 19:05 | 16.63009 | -161.20460 | 35079 ft | 500 kts | 25° |
| 2026-05-07 19:06 | 16.68874 | -161.16642 | 35075 ft | 499 kts | 25° |
| 2026-05-07 19:06 | 16.77716 | -161.10880 | 35073 ft | 499 kts | 25° |
| 2026-05-07 19:07 | 16.83598 | -161.07044 | 35085 ft | 498 kts | 25° |
| 2026-05-07 19:07 | 16.89479 | -161.03205 | 35091 ft | 498 kts | 24° |
| 2026-05-07 19:08 | 16.95358 | -160.99365 | 35081 ft | 498 kts | 24° |
| 2026-05-07 19:08 | 17.01192 | -160.95551 | 35090 ft | 497 kts | 24° |
| 2026-05-07 19:09 | 17.07068 | -160.91707 | 35086 ft | 497 kts | 24° |
| 2026-05-07 19:09 | 17.12944 | -160.87860 | 35086 ft | 497 kts | 24° |
| 2026-05-07 19:10 | 17.18808 | -160.84019 | 35098 ft | 497 kts | 24° |
| 2026-05-07 19:10 | 17.24670 | -160.80175 | 35091 ft | 498 kts | 24° |
| 2026-05-07 19:11 | 17.30503 | -160.76348 | 35087 ft | 497 kts | 24° |
| 2026-05-07 19:11 | 17.36366 | -160.72497 | 35093 ft | 497 kts | 24° |
| 2026-05-07 19:12 | 17.42226 | -160.68646 | 35090 ft | 497 kts | 24° |
| 2026-05-07 19:12 | 17.48084 | -160.64793 | 35108 ft | 497 kts | 24° |
| 2026-05-07 19:13 | 17.53952 | -160.60932 | 35094 ft | 498 kts | 24° |
| 2026-05-07 19:13 | 17.59827 | -160.57062 | 35091 ft | 498 kts | 24° |
| 2026-05-07 19:14 | 17.65643 | -160.53227 | 35092 ft | 498 kts | 24° |
| 2026-05-07 19:14 | 17.71514 | -160.49354 | 35089 ft | 498 kts | 24° |
| 2026-05-07 19:15 | 17.77386 | -160.45477 | 35098 ft | 498 kts | 24° |
| 2026-05-07 19:15 | 17.83252 | -160.41600 | 35099 ft | 498 kts | 24° |
| 2026-05-07 19:16 | 17.89129 | -160.37713 | 35095 ft | 498 kts | 24° |
| 2026-05-07 19:16 | 17.94962 | -160.33853 | 35100 ft | 499 kts | 24° |
| 2026-05-07 19:17 | 18.00843 | -160.29956 | 35099 ft | 499 kts | 24° |
| 2026-05-07 19:17 | 18.06720 | -160.26059 | 35101 ft | 499 kts | 24° |
| 2026-05-07 19:18 | 18.09668 | -160.24095 | 35224 ft | 504 kts | 24° |
| 2026-05-07 19:18 | 18.12595 | -160.22138 | 35532 ft | 504 kts | 24° |
| 2026-05-07 19:18 | 18.15546 | -160.20158 | 35932 ft | 501 kts | 24° |
| 2026-05-07 19:18 | 18.18482 | -160.18185 | 36330 ft | 499 kts | 24° |
| 2026-05-07 19:19 | 18.21399 | -160.16225 | 36710 ft | 497 kts | 24° |
| 2026-05-07 19:19 | 18.24326 | -160.14261 | 37067 ft | 496 kts | 24° |
| 2026-05-07 19:19 | 18.29201 | -160.10996 | 37097 ft | 501 kts | 24° |
| 2026-05-07 19:20 | 18.36020 | -160.06418 | 37089 ft | 496 kts | 24° |
| 2026-05-07 19:20 | 18.40881 | -160.03149 | 37107 ft | 494 kts | 24° |
| 2026-05-07 19:21 | 18.46642 | -159.99276 | 37102 ft | 493 kts | 24° |
| 2026-05-07 19:21 | 18.52427 | -159.95385 | 37105 ft | 493 kts | 24° |
| 2026-05-07 19:22 | 18.58208 | -159.91494 | 37104 ft | 493 kts | 24° |
| 2026-05-07 19:22 | 18.63997 | -159.87593 | 37105 ft | 494 kts | 24° |
| 2026-05-07 19:23 | 18.69798 | -159.83680 | 37118 ft | 495 kts | 24° |
| 2026-05-07 19:23 | 18.75612 | -159.79756 | 37110 ft | 497 kts | 24° |
| 2026-05-07 19:24 | 18.81402 | -159.75844 | 37110 ft | 497 kts | 24° |
| 2026-05-07 19:24 | 18.87242 | -159.71894 | 37109 ft | 498 kts | 24° |
| 2026-05-07 19:25 | 18.93086 | -159.67938 | 37113 ft | 499 kts | 24° |
| 2026-05-07 19:25 | 18.98930 | -159.63978 | 37136 ft | 499 kts | 24° |
| 2026-05-07 19:26 | 19.04772 | -159.60017 | 37113 ft | 498 kts | 24° |
| 2026-05-07 19:26 | 19.10594 | -159.56130 | 37104 ft | 496 kts | 22° |
| 2026-05-07 19:27 | 19.16506 | -159.52411 | 37116 ft | 493 kts | 21° |
| 2026-05-07 19:27 | 19.22421 | -159.48727 | 37110 ft | 492 kts | 22° |
| 2026-05-07 19:28 | 19.28314 | -159.45025 | 37139 ft | 492 kts | 22° |
| 2026-05-07 19:28 | 19.34197 | -159.41304 | 37113 ft | 492 kts | 23° |
| 2026-05-07 19:29 | 19.40032 | -159.37600 | 37119 ft | 491 kts | 23° |
| 2026-05-07 19:29 | 19.45898 | -159.33877 | 37120 ft | 491 kts | 23° |
| 2026-05-07 19:30 | 19.51772 | -159.30146 | 37119 ft | 491 kts | 22° |
| 2026-05-07 19:30 | 19.57636 | -159.26421 | 37136 ft | 491 kts | 23° |
| 2026-05-07 19:31 | 19.63502 | -159.22691 | 37124 ft | 492 kts | 24° |
| 2026-05-07 19:31 | 19.69334 | -159.18977 | 37128 ft | 492 kts | 24° |
| 2026-05-07 19:32 | 19.75214 | -159.15232 | 37121 ft | 493 kts | 24° |
| 2026-05-07 19:32 | 19.81101 | -159.11476 | 37120 ft | 494 kts | 24° |
| 2026-05-07 19:33 | 19.87002 | -159.07710 | 37139 ft | 494 kts | 25° |
| 2026-05-07 19:33 | 19.92906 | -159.03939 | 37127 ft | 495 kts | 25° |
| 2026-05-07 19:34 | 19.98813 | -159.00161 | 37124 ft | 495 kts | 25° |
| 2026-05-07 19:34 | 20.04677 | -158.96407 | 37126 ft | 495 kts | 25° |
| 2026-05-07 19:35 | 20.10593 | -158.92618 | 37127 ft | 495 kts | 25° |
| 2026-05-07 19:35 | 20.16505 | -158.88828 | 37145 ft | 495 kts | 26° |
| 2026-05-07 19:36 | 20.22406 | -158.85042 | 37120 ft | 495 kts | 26° |
| 2026-05-07 19:36 | 20.28268 | -158.81275 | 37126 ft | 494 kts | 26° |
| 2026-05-07 19:37 | 20.34153 | -158.77492 | 37124 ft | 493 kts | 26° |
| 2026-05-07 19:37 | 20.40033 | -158.73709 | 37131 ft | 493 kts | 26° |
| 2026-05-07 19:38 | 20.45911 | -158.69924 | 37138 ft | 492 kts | 27° |
| 2026-05-07 19:38 | 20.51741 | -158.66166 | 37129 ft | 492 kts | 27° |
| 2026-05-07 19:39 | 20.57601 | -158.62385 | 37125 ft | 492 kts | 27° |
| 2026-05-07 19:39 | 20.63455 | -158.58605 | 37128 ft | 491 kts | 27° |
| 2026-05-07 19:40 | 20.69297 | -158.54829 | 37131 ft | 491 kts | 27° |
| 2026-05-07 19:40 | 20.75151 | -158.51042 | 37133 ft | 491 kts | 27° |
| 2026-05-07 19:41 | 20.80995 | -158.47258 | 37133 ft | 491 kts | 27° |
| 2026-05-07 19:41 | 20.86810 | -158.43490 | 37128 ft | 491 kts | 27° |
| 2026-05-07 19:42 | 20.92657 | -158.39697 | 37139 ft | 491 kts | 27° |
| 2026-05-07 19:42 | 20.98499 | -158.35904 | 37139 ft | 492 kts | 27° |
| 2026-05-07 19:43 | 21.04356 | -158.32097 | 37147 ft | 492 kts | 28° |
| 2026-05-07 19:43 | 21.10213 | -158.28287 | 37140 ft | 492 kts | 28° |
| 2026-05-07 19:44 | 21.16020 | -158.24506 | 37153 ft | 492 kts | 28° |
| 2026-05-07 19:44 | 21.21877 | -158.20688 | 37155 ft | 492 kts | 28° |
| 2026-05-07 19:45 | 21.27726 | -158.16873 | 37156 ft | 492 kts | 28° |
| 2026-05-07 19:45 | 21.33570 | -158.13057 | 37163 ft | 491 kts | 28° |
| 2026-05-07 19:46 | 21.39415 | -158.09236 | 37157 ft | 491 kts | 28° |
| 2026-05-07 19:46 | 21.45217 | -158.05442 | 37175 ft | 491 kts | 28° |
| 2026-05-07 19:47 | 21.51048 | -158.01623 | 37174 ft | 491 kts | 28° |
| 2026-05-07 19:47 | 21.56881 | -157.97800 | 37175 ft | 491 kts | 28° |
| 2026-05-07 19:48 | 21.62721 | -157.93969 | 37169 ft | 491 kts | 29° |
| 2026-05-07 19:48 | 21.68555 | -157.90138 | 37156 ft | 491 kts | 29° |
| 2026-05-07 19:49 | 21.74346 | -157.86331 | 37145 ft | 490 kts | 29° |
| 2026-05-07 19:49 | 21.80167 | -157.82501 | 37145 ft | 490 kts | 29° |
| 2026-05-07 19:50 | 21.85984 | -157.78670 | 37151 ft | 490 kts | 29° |
| 2026-05-07 19:50 | 21.91805 | -157.74833 | 37156 ft | 490 kts | 29° |
| 2026-05-07 19:51 | 21.97620 | -157.70996 | 37158 ft | 490 kts | 30° |
| 2026-05-07 19:51 | 22.03395 | -157.67182 | 37153 ft | 489 kts | 30° |
| 2026-05-07 19:52 | 22.09205 | -157.63340 | 37162 ft | 489 kts | 30° |
| 2026-05-07 19:52 | 22.15015 | -157.59495 | 37156 ft | 489 kts | 30° |
| 2026-05-07 19:53 | 22.20786 | -157.55672 | 37162 ft | 489 kts | 30° |
| 2026-05-07 19:53 | 22.26584 | -157.51828 | 37157 ft | 489 kts | 30° |
| 2026-05-07 19:54 | 22.32384 | -157.47978 | 37156 ft | 489 kts | 30° |
| 2026-05-07 19:54 | 22.38187 | -157.44122 | 37158 ft | 489 kts | 30° |
| 2026-05-07 19:55 | 22.43990 | -157.40264 | 37168 ft | 489 kts | 30° |
| 2026-05-07 19:55 | 22.49797 | -157.36398 | 37170 ft | 489 kts | 30° |
| 2026-05-07 19:56 | 22.55566 | -157.32553 | 37163 ft | 489 kts | 30° |
| 2026-05-07 19:56 | 22.61360 | -157.28688 | 37162 ft | 489 kts | 30° |
| 2026-05-07 19:57 | 22.67160 | -157.24816 | 37162 ft | 489 kts | 30° |
| 2026-05-07 19:57 | 22.72950 | -157.20945 | 37165 ft | 489 kts | 31° |
| 2026-05-07 19:58 | 22.78740 | -157.17072 | 37161 ft | 489 kts | 31° |
| 2026-05-07 19:58 | 22.84524 | -157.13198 | 37170 ft | 488 kts | 31° |
| 2026-05-07 19:59 | 22.90282 | -157.09338 | 37167 ft | 488 kts | 31° |
| 2026-05-07 19:59 | 22.96064 | -157.05457 | 37168 ft | 488 kts | 31° |
| 2026-05-07 20:00 | 23.01839 | -157.01578 | 37171 ft | 488 kts | 31° |
| 2026-05-07 20:00 | 23.07619 | -156.97691 | 37170 ft | 488 kts | 31° |
| 2026-05-07 20:01 | 23.13401 | -156.93799 | 37169 ft | 488 kts | 31° |
| 2026-05-07 20:01 | 23.19147 | -156.89927 | 37163 ft | 488 kts | 31° |
| 2026-05-07 20:02 | 23.24924 | -156.86031 | 37180 ft | 488 kts | 31° |
| 2026-05-07 20:02 | 23.30699 | -156.82131 | 37175 ft | 488 kts | 31° |
| 2026-05-07 20:03 | 23.36471 | -156.78229 | 37165 ft | 488 kts | 31° |
| 2026-05-07 20:03 | 23.42250 | -156.74319 | 37168 ft | 488 kts | 31° |
| 2026-05-07 20:04 | 23.47979 | -156.70438 | 37173 ft | 488 kts | 31° |
| 2026-05-07 20:04 | 23.53741 | -156.66531 | 37171 ft | 487 kts | 31° |
| 2026-05-07 20:05 | 23.59503 | -156.62620 | 37170 ft | 487 kts | 32° |
| 2026-05-07 20:05 | 23.65266 | -156.58704 | 37168 ft | 488 kts | 32° |
| 2026-05-07 20:06 | 23.71025 | -156.54787 | 37169 ft | 488 kts | 32° |
| 2026-05-07 20:06 | 23.76745 | -156.50893 | 37184 ft | 488 kts | 32° |
| 2026-05-07 20:07 | 23.82503 | -156.46967 | 37163 ft | 488 kts | 32° |
| 2026-05-07 20:07 | 23.88266 | -156.43035 | 37175 ft | 488 kts | 32° |
| 2026-05-07 20:08 | 23.94026 | -156.39099 | 37174 ft | 488 kts | 32° |
| 2026-05-07 20:08 | 23.99794 | -156.35152 | 37165 ft | 488 kts | 33° |
| 2026-05-07 20:09 | 24.05032 | -156.30459 | 37185 ft | 488 kts | 46° |
| 2026-05-07 20:10 | 24.10565 | -156.22671 | 37164 ft | 487 kts | 56° |
| 2026-05-07 20:10 | 24.14428 | -156.16562 | 37185 ft | 488 kts | 56° |
| 2026-05-07 20:11 | 24.18316 | -156.10463 | 37161 ft | 488 kts | 55° |
| 2026-05-07 20:11 | 24.22226 | -156.04382 | 37167 ft | 488 kts | 55° |
| 2026-05-07 20:12 | 24.26148 | -155.98291 | 37183 ft | 488 kts | 55° |
| 2026-05-07 20:12 | 24.30046 | -155.92230 | 37166 ft | 489 kts | 55° |
| 2026-05-07 20:13 | 24.33963 | -155.86129 | 37161 ft | 490 kts | 55° |
| 2026-05-07 20:13 | 24.37883 | -155.80013 | 37185 ft | 490 kts | 55° |
| 2026-05-07 20:14 | 24.41804 | -155.73889 | 37181 ft | 490 kts | 55° |
| 2026-05-07 20:14 | 24.45720 | -155.67764 | 37175 ft | 490 kts | 56° |
| 2026-05-07 20:15 | 24.49606 | -155.61678 | 37166 ft | 490 kts | 55° |
| 2026-05-07 20:15 | 24.53520 | -155.55542 | 37188 ft | 490 kts | 56° |
| 2026-05-07 20:16 | 24.57432 | -155.49400 | 37177 ft | 491 kts | 56° |
| 2026-05-07 20:16 | 24.61348 | -155.43245 | 37170 ft | 491 kts | 56° |
| 2026-05-07 20:17 | 24.65260 | -155.37088 | 37168 ft | 491 kts | 56° |
| 2026-05-07 20:17 | 24.69172 | -155.30922 | 37183 ft | 491 kts | 56° |
| 2026-05-07 20:18 | 24.73297 | -155.24925 | 37173 ft | 492 kts | 47° |
| 2026-05-07 20:18 | 24.78156 | -155.19619 | 37174 ft | 492 kts | 44° |
| 2026-05-07 20:19 | 24.83092 | -155.14381 | 37196 ft | 492 kts | 44° |
| 2026-05-07 20:19 | 24.87979 | -155.09145 | 37179 ft | 493 kts | 44° |
| 2026-05-07 20:20 | 24.92882 | -155.03844 | 37176 ft | 493 kts | 45° |
| 2026-05-07 20:20 | 24.97776 | -154.98532 | 37180 ft | 494 kts | 44° |
| 2026-05-07 20:21 | 25.02670 | -154.93214 | 37182 ft | 494 kts | 44° |
| 2026-05-07 20:21 | 25.07528 | -154.87932 | 37183 ft | 494 kts | 44° |
| 2026-05-07 20:22 | 25.12426 | -154.82600 | 37184 ft | 494 kts | 44° |
| 2026-05-07 20:22 | 25.17318 | -154.77270 | 37181 ft | 494 kts | 45° |
| 2026-05-07 20:23 | 25.22221 | -154.71920 | 37183 ft | 495 kts | 44° |
| 2026-05-07 20:23 | 25.27123 | -154.66566 | 37187 ft | 495 kts | 44° |
| 2026-05-07 20:24 | 25.32001 | -154.61231 | 37187 ft | 496 kts | 44° |
| 2026-05-07 20:24 | 25.36903 | -154.55864 | 37183 ft | 496 kts | 45° |
| 2026-05-07 20:25 | 25.41813 | -154.50480 | 37183 ft | 496 kts | 45° |
| 2026-05-07 20:25 | 25.46723 | -154.45091 | 37186 ft | 497 kts | 45° |
| 2026-05-07 20:26 | 25.51637 | -154.39690 | 37184 ft | 498 kts | 45° |
| 2026-05-07 20:26 | 25.56543 | -154.34293 | 37179 ft | 498 kts | 45° |
| 2026-05-07 20:27 | 25.61453 | -154.28883 | 37186 ft | 498 kts | 45° |
| 2026-05-07 20:27 | 25.66337 | -154.23496 | 37199 ft | 498 kts | 45° |
| 2026-05-07 20:28 | 25.71244 | -154.18077 | 37185 ft | 498 kts | 45° |
| 2026-05-07 20:28 | 25.76161 | -154.12639 | 37185 ft | 498 kts | 45° |
| 2026-05-07 20:29 | 25.81072 | -154.07203 | 37188 ft | 498 kts | 45° |
| 2026-05-07 20:29 | 25.85951 | -154.01794 | 37183 ft | 498 kts | 45° |
| 2026-05-07 20:30 | 25.90862 | -153.96344 | 37185 ft | 498 kts | 45° |
| 2026-05-07 20:30 | 25.95764 | -153.90897 | 37187 ft | 498 kts | 45° |
| 2026-05-07 20:31 | 26.00631 | -153.85482 | 37188 ft | 498 kts | 45° |
| 2026-05-07 20:31 | 26.05530 | -153.80024 | 37186 ft | 498 kts | 45° |
| 2026-05-07 20:32 | 26.10420 | -153.74569 | 37186 ft | 498 kts | 45° |
| 2026-05-07 20:32 | 26.15312 | -153.69106 | 37185 ft | 498 kts | 45° |
| 2026-05-07 20:33 | 26.20208 | -153.63632 | 37186 ft | 498 kts | 45° |
| 2026-05-07 20:33 | 26.25094 | -153.58161 | 37182 ft | 498 kts | 45° |
| 2026-05-07 20:34 | 26.29989 | -153.52673 | 37189 ft | 499 kts | 45° |
| 2026-05-07 20:34 | 26.34850 | -153.47217 | 37194 ft | 499 kts | 45° |
| 2026-05-07 20:35 | 26.39746 | -153.41715 | 37185 ft | 499 kts | 45° |
| 2026-05-07 20:35 | 26.44638 | -153.36209 | 37186 ft | 499 kts | 45° |
| 2026-05-07 20:36 | 26.49533 | -153.30694 | 37190 ft | 500 kts | 45° |
| 2026-05-07 20:36 | 26.54427 | -153.25172 | 37188 ft | 500 kts | 45° |
| 2026-05-07 20:37 | 26.59291 | -153.19677 | 37196 ft | 500 kts | 45° |
| 2026-05-07 20:37 | 26.64193 | -153.14132 | 37193 ft | 501 kts | 45° |
| 2026-05-07 20:38 | 26.69097 | -153.08579 | 37189 ft | 501 kts | 45° |
| 2026-05-07 20:38 | 26.73990 | -153.03030 | 37191 ft | 501 kts | 45° |
| 2026-05-07 20:39 | 26.78856 | -152.97504 | 37197 ft | 501 kts | 45° |
| 2026-05-07 20:39 | 26.83749 | -152.91940 | 37190 ft | 501 kts | 45° |
| 2026-05-07 20:40 | 26.88645 | -152.86366 | 37185 ft | 501 kts | 45° |
| 2026-05-07 20:40 | 26.93505 | -152.80825 | 37194 ft | 501 kts | 45° |
| 2026-05-07 20:41 | 26.98394 | -152.75245 | 37179 ft | 501 kts | 45° |
| 2026-05-07 20:41 | 27.03282 | -152.69658 | 37194 ft | 502 kts | 45° |
| 2026-05-07 20:42 | 27.08170 | -152.64063 | 37184 ft | 502 kts | 45° |
| 2026-05-07 20:42 | 27.13061 | -152.58458 | 37193 ft | 502 kts | 45° |
| 2026-05-07 20:43 | 27.17944 | -152.52855 | 37195 ft | 502 kts | 45° |
| 2026-05-07 20:43 | 27.22824 | -152.47247 | 37205 ft | 502 kts | 45° |
| 2026-05-07 20:44 | 27.27712 | -152.41623 | 37195 ft | 503 kts | 45° |
| 2026-05-07 20:44 | 27.32567 | -152.36029 | 37193 ft | 503 kts | 45° |
| 2026-05-07 20:45 | 27.37455 | -152.30389 | 37192 ft | 503 kts | 45° |
| 2026-05-07 20:45 | 27.42343 | -152.24742 | 37190 ft | 503 kts | 45° |
| 2026-05-07 20:46 | 27.47232 | -152.19087 | 37190 ft | 504 kts | 45° |
| 2026-05-07 20:46 | 27.52113 | -152.13432 | 37191 ft | 504 kts | 45° |
| 2026-05-07 20:47 | 27.56992 | -152.07773 | 37189 ft | 503 kts | 45° |
| 2026-05-07 20:47 | 27.61876 | -152.02100 | 37191 ft | 503 kts | 45° |
| 2026-05-07 20:48 | 27.66724 | -151.96460 | 37203 ft | 504 kts | 45° |
| 2026-05-07 20:48 | 27.71611 | -151.90769 | 37186 ft | 504 kts | 45° |
| 2026-05-07 20:49 | 27.76489 | -151.85080 | 37190 ft | 504 kts | 45° |
| 2026-05-07 20:49 | 27.81373 | -151.79375 | 37190 ft | 504 kts | 45° |
| 2026-05-07 20:50 | 27.86252 | -151.73669 | 37203 ft | 504 kts | 45° |
| 2026-05-07 20:50 | 27.91099 | -151.67992 | 37190 ft | 505 kts | 45° |
| 2026-05-07 20:51 | 27.95985 | -151.62262 | 37191 ft | 505 kts | 45° |
| 2026-05-07 20:51 | 28.00866 | -151.56530 | 37191 ft | 505 kts | 45° |
| 2026-05-07 20:52 | 28.05745 | -151.50792 | 37190 ft | 505 kts | 45° |
| 2026-05-07 20:52 | 28.10594 | -151.45081 | 37191 ft | 505 kts | 45° |
| 2026-05-07 20:53 | 28.15473 | -151.39327 | 37191 ft | 506 kts | 45° |
| 2026-05-07 20:53 | 28.20348 | -151.33570 | 37185 ft | 506 kts | 45° |
| 2026-05-07 20:54 | 28.25220 | -151.27807 | 37191 ft | 505 kts | 45° |
| 2026-05-07 20:54 | 28.30080 | -151.22052 | 37202 ft | 505 kts | 45° |
| 2026-05-07 20:55 | 28.34917 | -151.16315 | 37191 ft | 506 kts | 45° |
| 2026-05-07 20:55 | 28.39783 | -151.10537 | 37191 ft | 506 kts | 45° |
| 2026-05-07 20:56 | 28.44648 | -151.04751 | 37191 ft | 507 kts | 45° |
| 2026-05-07 20:56 | 28.49516 | -150.98952 | 37195 ft | 507 kts | 45° |
| 2026-05-07 20:57 | 28.54389 | -150.93140 | 37192 ft | 507 kts | 45° |
| 2026-05-07 20:57 | 28.59232 | -150.87356 | 37194 ft | 507 kts | 45° |
| 2026-05-07 20:58 | 28.64100 | -150.81533 | 37193 ft | 507 kts | 45° |
| 2026-05-07 20:58 | 28.68962 | -150.75708 | 37204 ft | 508 kts | 45° |
| 2026-05-07 20:59 | 28.73827 | -150.69873 | 37195 ft | 508 kts | 45° |
| 2026-05-07 20:59 | 28.78700 | -150.64018 | 37194 ft | 508 kts | 45° |
| 2026-05-07 21:00 | 28.82747 | -150.59149 | 37192 ft | 509 kts | 45° |
| 2026-05-07 21:00 | 28.87590 | -150.53315 | 37210 ft | 509 kts | 45° |
| 2026-05-07 21:01 | 28.92454 | -150.47448 | 37198 ft | 509 kts | 45° |
| 2026-05-07 21:01 | 28.97330 | -150.41557 | 37194 ft | 509 kts | 45° |
| 2026-05-07 21:02 | 29.02200 | -150.35665 | 37193 ft | 509 kts | 45° |
| 2026-05-07 21:02 | 29.07849 | -150.28820 | 37213 ft | 509 kts | 45° |
| 2026-05-07 21:03 | 29.11924 | -150.23875 | 37194 ft | 510 kts | 45° |
| 2026-05-07 21:03 | 29.16763 | -150.17995 | 37191 ft | 510 kts | 45° |
| 2026-05-07 21:04 | 29.21626 | -150.12076 | 37192 ft | 510 kts | 45° |
| 2026-05-07 21:04 | 29.26487 | -150.06151 | 37190 ft | 510 kts | 45° |
| 2026-05-07 21:05 | 29.31350 | -150.00215 | 37192 ft | 510 kts | 45° |
| 2026-05-07 21:05 | 29.36216 | -149.94266 | 37190 ft | 511 kts | 45° |
| 2026-05-07 21:06 | 29.41079 | -149.88313 | 37184 ft | 511 kts | 45° |
| 2026-05-07 21:06 | 29.45904 | -149.82397 | 37210 ft | 510 kts | 45° |
| 2026-05-07 21:07 | 29.50758 | -149.76436 | 37186 ft | 511 kts | 45° |
| 2026-05-07 21:07 | 29.55614 | -149.70464 | 37179 ft | 512 kts | 45° |
| 2026-05-07 21:08 | 29.60476 | -149.64476 | 37200 ft | 512 kts | 45° |
| 2026-05-07 21:08 | 29.65339 | -149.58477 | 37207 ft | 513 kts | 45° |
| 2026-05-07 21:09 | 29.70205 | -149.52465 | 37185 ft | 513 kts | 45° |
| 2026-05-07 21:09 | 29.75045 | -149.46476 | 37195 ft | 513 kts | 45° |
| 2026-05-07 21:10 | 29.79909 | -149.40448 | 37186 ft | 514 kts | 45° |
| 2026-05-07 21:10 | 29.84771 | -149.34413 | 37219 ft | 514 kts | 45° |
| 2026-05-07 21:11 | 29.89639 | -149.28363 | 37195 ft | 515 kts | 45° |
| 2026-05-07 21:11 | 29.96942 | -149.19265 | 37199 ft | 515 kts | 45° |
| 2026-05-07 21:12 | 30.01809 | -149.13190 | 37187 ft | 515 kts | 45° |
| 2026-05-07 21:12 | 30.06649 | -149.07142 | 37187 ft | 515 kts | 45° |
| 2026-05-07 21:13 | 30.11513 | -149.01066 | 37182 ft | 514 kts | 45° |
| 2026-05-07 21:13 | 30.16368 | -148.94994 | 37196 ft | 514 kts | 45° |
| 2026-05-07 21:14 | 30.21220 | -148.88914 | 37209 ft | 513 kts | 45° |
| 2026-05-07 21:14 | 30.26034 | -148.82870 | 37197 ft | 514 kts | 45° |
| 2026-05-07 21:15 | 30.30880 | -148.76777 | 37187 ft | 514 kts | 45° |
| 2026-05-07 21:15 | 30.35722 | -148.70678 | 37192 ft | 515 kts | 45° |
| 2026-05-07 21:16 | 30.40569 | -148.64564 | 37207 ft | 515 kts | 45° |
| 2026-05-07 21:16 | 30.45428 | -148.58426 | 37196 ft | 517 kts | 45° |
| 2026-05-07 21:17 | 30.50259 | -148.52313 | 37192 ft | 518 kts | 45° |
| 2026-05-07 21:17 | 30.55135 | -148.46133 | 37183 ft | 519 kts | 45° |
| 2026-05-07 21:18 | 30.60008 | -148.39946 | 37198 ft | 519 kts | 45° |
| 2026-05-07 21:18 | 30.64885 | -148.33745 | 37189 ft | 520 kts | 45° |
| 2026-05-07 21:19 | 30.69727 | -148.27579 | 37188 ft | 520 kts | 45° |
| 2026-05-07 21:19 | 30.74596 | -148.21368 | 37187 ft | 519 kts | 45° |
| 2026-05-07 21:20 | 30.79464 | -148.15147 | 37191 ft | 520 kts | 45° |
| 2026-05-07 21:20 | 30.84333 | -148.08917 | 37188 ft | 520 kts | 45° |
| 2026-05-07 21:21 | 30.89205 | -148.02671 | 37188 ft | 520 kts | 45° |
| 2026-05-07 21:21 | 30.94070 | -147.96425 | 37197 ft | 521 kts | 45° |
| 2026-05-07 21:22 | 30.98902 | -147.90212 | 37180 ft | 521 kts | 45° |
| 2026-05-07 21:22 | 31.03703 | -147.84027 | 37183 ft | 521 kts | 45° |
| 2026-05-07 21:23 | 31.08571 | -147.77749 | 37184 ft | 521 kts | 45° |